I Watch It For The Plot // 9.89 TiB free of 112 TiB

c File Name Size Date
parent folder--
zip12796_ Sonic Wincest/282026-03-28 18:57:56
zip12796_Sonic Wincest/45945062026-03-28 18:57:56
zip18+ Webcomic: Scrawled/1512080242025-12-11 18:41:02
zip26964_Comics/1464585192026-03-29 02:18:36
zip32272_Patreon Requests/1535677022026-03-29 02:18:36
zip40896_Fancharacter- Tambre The Ferret/215689442026-03-28 18:57:57
zip41801_Image Sets/137665502026-03-29 02:18:36
zip48992_Animations/742030062026-03-29 02:18:36
zip62518_18+ Webcomic Scrawled/995320832026-03-28 18:57:56
zip62518_18+ Webcomic: Scrawled/2932026-03-29 02:18:36
-1018105.json78962025-05-01 08:53:24
-1018105_1401015_TheOtherHalf_aehentai_low.png7569322025-05-01 08:53:24
-1022517.json60312025-05-01 10:37:16
-1022517_1407153_TheOtherHalf_amy_workout.png4120672025-05-01 10:37:16
-1022521.json65442025-05-01 10:37:22
-1022521_1407164_TheOtherHalf_pan_thumb.png2007312025-05-01 10:37:22
-1028835.json98152025-05-01 13:25:43
-1028835_1416310_TheOtherHalf_blaze_comms_open.png8041252025-05-01 13:25:43
-1028835_1416311_TheOtherHalf_blaze_comms_open_alt.png7744182025-05-01 13:25:43
-1043513.json63152025-05-01 19:02:08
-1043513_1438978_TheOtherHalf_aaa20_comm.png2529252025-05-01 19:02:08
-1043516.json63122025-05-01 19:02:12
-1043516_1438982_TheOtherHalf_chacumera.png1814132025-05-01 19:02:12
-1043519.json62362025-05-01 19:02:15
-1043519_1438985_TheOtherHalf_sircharles.png7510242025-05-01 19:02:15
-1043521.json98032025-05-01 19:02:18
-1043521_1438987_TheOtherHalf_whitewhiskey.png3600152025-05-01 19:02:18
-1043521_1438989_TheOtherHalf_whitewhiskey_alt.png3784832025-05-01 19:02:18
-1044124.json52292018-11-19 12:23:43
-1044124_1439821_TheOtherHalf_mpldamsk9919_thumb.png3053212018-11-19 12:23:44
-1044129.json95852025-05-01 19:15:40
-1044129_1439826_TheOtherHalf_radix_01.png5150712025-05-01 19:15:40
-1044129_1439827_TheOtherHalf_radix_02.png5470032025-05-01 19:15:41
-1044137.json76282025-05-01 19:15:50
-1044137_1439835_TheOtherHalf_judy_hopps_sketches.jpg664522025-05-01 19:15:50
-1044786.json96282025-05-01 19:29:59
-1044786_1440841_TheOtherHalf_delquea.png6190752025-05-01 19:29:59
-1044786_1440842_TheOtherHalf_delquea_alt.png5502792025-05-01 19:29:59
-1044788.json55512025-05-01 19:30:03
-1044788_1440846_TheOtherHalf_vojeto.png2841042025-05-01 19:30:03
-1044791.json68632025-05-01 19:30:07
-1044791_1440850_TheOtherHalf_shocker_01.png3757322025-05-01 19:30:07
-1044795.json67362025-05-01 19:30:12
-1044795_1440855_TheOtherHalf_shocker_02.png4427142025-05-01 19:30:12
-1046116.json69282018-11-19 12:26:48
-1046116_1443288_TheOtherHalf_tehnamesz_thumb.png5647532018-11-19 12:26:48
-1063666.json92202025-05-02 02:44:26
-1063666_1469827_TheOtherHalf_kineticman_alt.png8145772025-05-02 02:44:26
-1063666_1469828_TheOtherHalf_kineticman.png8189752025-05-02 02:44:26
-1063672.json72082025-05-02 02:44:34
-1063672_1469835_TheOtherHalf_aurumg.png4953532025-05-02 02:44:34
-1063674.json58412025-05-02 02:44:37
-1063674_1469837_TheOtherHalf_rayoshi.png1919552025-05-02 02:44:37
-1063677.json61652025-05-02 02:44:40
-1063677_1469840_TheOtherHalf_darkhedgie.png2072572025-05-02 02:44:40
-1068301.json74392025-05-02 04:26:00
-1068301_1476632_TheOtherHalf_rick2tails.png3108332025-05-02 04:26:00
-1068323.json65082025-05-02 04:26:27
-1068323_1476654_TheOtherHalf_ms87.png4731552025-05-02 04:26:27
-1068330.json68452025-05-02 04:26:36
-1068330_1476663_TheOtherHalf_steamrolledsilver.png3911232025-05-02 04:26:36
-1068338.json63332025-05-02 04:26:46
-1068338_1476673_TheOtherHalf_kai_azurai.png1642982025-05-02 04:26:46
-1068344.json73902025-05-02 04:26:54
-1068344_1476681_TheOtherHalf_kenji321.png15093092025-05-02 04:26:54
-1074598.json61912025-05-02 06:42:34
-1074598_1485620_TheOtherHalf_judy_alley.png9947952025-05-02 06:42:34
-1113376.json68852025-05-02 21:25:01
-1113376_1543477_TheOtherHalf_sonar_the_fennec.png7004192025-05-02 21:25:01
-1113529.json76182025-05-02 21:28:24
-1113529_1543666_TheOtherHalf_amanda_for_passpartou.png11514222025-05-02 21:28:24
-1114841.json127932025-05-02 21:58:07
-1114841_1545731_TheOtherHalf_short_bottom_buddies.png4953302025-05-02 21:58:07
-1114841_1545732_TheOtherHalf_short_bottom_buddies_sonar.png2672352025-05-02 21:58:07
-1114841_1545733_TheOtherHalf_short_bottom_buddies_sal.png2112812025-05-02 21:58:08
-1122884.json135852025-05-03 00:55:57
-1122884_1558046_TheOtherHalf_toh_kenji321_contest.png57556852025-05-03 00:55:56
-1122884_1558050_TheOtherHalf_toh_kenji321_contest_nob.png57004412025-05-03 00:55:57
-1152012.json76282025-05-03 12:15:58
-1152012_1600301_TheOtherHalf_jvtmntapril_thumb.png2769352025-05-03 12:15:58
-1198534.json72242025-05-04 05:58:00
-1198534_1671259_TheOtherHalf_psg_style.png7970642025-05-04 05:58:00
-1199946.json69072025-05-04 06:29:20
-1199946_1673456_TheOtherHalf_dakina_comm_low.png9047022025-05-04 06:29:20
-1203056.json71702025-05-04 07:37:03
-1203056_1677793_TheOtherHalf_tr_comm_thumb.png622872025-05-04 07:37:03
-1207014.json67292025-05-04 09:06:27
-1207014_1683719_TheOtherHalf_tr2_comm_thumb.png2064002025-05-04 09:06:27
-1214234.json110032025-05-04 12:22:22
-1214234_1694475_TheOtherHalf_ych01.png12674052025-05-04 12:22:22
-1214234_1694476_TheOtherHalf_ych02.png12819452025-05-04 12:22:22
-1214234_1694477_TheOtherHalf_ych03.png13141872025-05-04 12:22:21
-1223670.json95642025-05-04 16:19:55
-1223670_1708251_TheOtherHalf_halloween16_low.png16943812025-05-04 16:19:55
-1224339.json72122025-05-04 16:35:39
-1224339_1709216_TheOtherHalf_the_good_ol_days_low.png5857292025-05-04 16:35:39
-1226269.json64822025-05-04 17:19:40
-1226269_1712308_TheOtherHalf_comm_bossybamboo_low.png3223242025-05-04 17:19:40
-1227405.json62792025-05-04 17:44:15
-1227405_1714062_TheOtherHalf_sth121_01_low.png821692025-05-04 17:44:15
-1227407.json59952025-05-04 17:44:18
-1227407_1714064_TheOtherHalf_sth121_02_low.png987962025-05-04 17:44:18
-1229348.json71412025-05-04 18:28:17
-1229348_1716887_TheOtherHalf_comm_blackflash09_low_.png6733242025-05-04 18:28:17
-1229355.json75242025-05-04 18:28:25
-1229355_1716896_TheOtherHalf_comm_colormute_low.png411582025-05-04 18:28:25
-1230709.json63192025-05-04 18:58:10
-1230709_1718890_TheOtherHalf_comm_winterwolfy_low.png7795792025-05-04 18:58:10
-1256256.json59692025-05-05 04:36:32
-1256256_1756818_TheOtherHalf_sayomi11_comm.png4219272025-05-05 04:36:32
-1256258.json66462025-05-05 04:36:35
-1256258_1756820_TheOtherHalf_shocker_comm.png5093122025-05-05 04:36:35
-1256262.json61612025-05-05 04:36:40
-1256262_1756824_TheOtherHalf_cassia_n_clove.png5731992025-05-05 04:36:40
-1266778.json123652025-05-05 08:28:58
-1266778_1772783_TheOtherHalf_holiday_mall_santa_low.png40710762025-05-05 08:28:58
-1266794.json294212025-05-05 08:29:24
-1266794_1772801_TheOtherHalf_holiday2016_thumb.png7292452025-05-05 08:29:24
-1266794_1772804_TheOtherHalf_butts_low.png3129192025-05-05 08:29:24
-1266794_1772805_TheOtherHalf_big_amy_blaze_low.png10166112025-05-05 08:29:24
-1266794_1772806_TheOtherHalf_knux_tikal_low.png5251602025-05-05 08:29:24
-1266794_1772807_TheOtherHalf_le_cock.png1621202025-05-05 08:29:24
-1266794_1772808_TheOtherHalf_shadow_rouge_low.png4987752025-05-05 08:29:25
-1266794_1772809_TheOtherHalf_sonic_sal_low.png5106362025-05-05 08:29:25
-1266794_1772810_TheOtherHalf_sticks_low.png3703612025-05-05 08:29:25
-1266794_1772812_TheOtherHalf_tails_sonar_low.png4788262025-05-05 08:29:25
-1266794_1772814_TheOtherHalf_vanilla_cream_low.png4634412025-05-05 08:29:25
-1268396.json54822025-05-05 09:03:54
-1268396_1775114_TheOtherHalf_ttk_comm.png5196622025-05-05 09:03:54
-1268403.json67082025-05-05 09:04:11
-1268403_1775129_TheOtherHalf_whitewhiskey_comm.png3629682025-05-05 09:04:11
-1268417.json64692025-05-05 09:04:27
-1268417_1775148_TheOtherHalf_euphoricdream_comm.png1105212025-05-05 09:04:27
-1271921.json68032025-05-05 10:31:02
-1271921_1780485_TheOtherHalf_bump_n_grind.png3900462025-05-05 10:31:02
-1278237.json63462025-05-05 13:02:03
-1278237_1790655_TheOtherHalf_tails_n_sal.png5962222025-05-05 13:02:03
-1281679.json65522025-05-05 14:27:40
-1281679_1795841_TheOtherHalf_buttercup_thumb.png1046202025-05-05 14:27:40
-1290956.json88812025-05-05 18:09:12
-1290956_1809642_TheOtherHalf_hedgehog_day_2017.png10039542025-05-05 18:09:12
-1291627.json97342025-05-05 18:25:36
-1291627_1810647_TheOtherHalf_virgin_killer.png12787592025-05-05 18:25:36
-1291627_1810649_TheOtherHalf_virgin_killer_alt.png13684112025-05-05 18:25:35
-1308133.json64192025-05-06 01:00:00
-1308133_1835263_TheOtherHalf_tr_comm_thumb.png1856642025-05-06 01:00:00
-1309941.json74442025-05-06 01:40:26
-1309941_1837944_TheOtherHalf_rwby_doggy_thumb.png2545952025-05-06 01:40:26
-1311031.json65962025-05-06 02:04:47
-1311031_1839667_TheOtherHalf_ttjc_terra_thumb.png2225352025-05-06 02:04:47
-1317213.json65712025-05-06 04:27:44
-1317213_1848934_TheOtherHalf_tr_comm2_thumb.png2234252025-05-06 04:27:44
-1318720.json69602025-05-06 05:02:38
-1318720_1851060_TheOtherHalf_sonic-run3.gif1800782025-05-06 05:02:38
-1319477.json61802025-05-06 05:19:46
-1319477_1852199_TheOtherHalf_tikal_chaos_low.png4424582025-05-06 05:19:46
-1321167.json61762025-05-06 05:57:59
-1321167_1854652_TheOtherHalf_sonamy_low.png3890052025-05-06 05:57:59
-1326559.json117192025-05-06 07:57:57
-1326559_1862692_TheOtherHalf_april_censor.png4405952025-05-06 07:57:57
-1326559_1862693_TheOtherHalf_april2_low.png4353182025-05-06 07:57:57
-1327739.json61722025-05-06 08:23:51
-1344078.json69182025-05-06 14:47:45
-1344078_1888903_TheOtherHalf_nicky.png3538932025-05-06 14:47:45
-1349199.json74612025-05-06 16:47:14
-1349199_1896401_TheOtherHalf_shado16_comm_low.png7390042025-05-06 16:47:14
-1349334.json95632025-05-06 16:50:19
-1349334_1896599_TheOtherHalf_larasu_redo_low.png6591392025-05-06 16:50:19
-1349334_1896600_TheOtherHalf_larasu_old.png5488792025-05-06 16:50:20
-1351277.json73312025-05-06 17:33:44
-1351277_1899500_TheOtherHalf_eric_a_comm_low.png10573602025-05-06 17:33:44
-1357392.json104962025-05-06 19:57:59
-1357392_1908864_TheOtherHalf_windy_whistles_low_text.png9137182025-05-06 19:57:59
-1357392_1908865_TheOtherHalf_windy_whistles_low_notext.png8654352025-05-06 19:57:59
-1376411.json59802025-05-07 03:31:59
-1376411_1937400_TheOtherHalf_mabel_thumb.png1633462025-05-07 03:31:59
-1384189.json68862025-05-07 06:35:25
-1384189_1948691_TheOtherHalf_flutter01_low.png4895732025-05-07 06:35:25
-1389731.json74392025-05-07 08:42:01
-1389731_1957559_TheOtherHalf_flutter02_low.png6020892025-05-07 08:42:01
-1392474.json88902025-05-07 09:44:28
-1392474_1961996_TheOtherHalf_tailsko_low.png6049512025-05-07 09:44:28
-1407264.json56012025-05-07 15:32:55
-1407264_1984089_TheOtherHalf_tr01_low.png8060942025-05-07 15:32:55
-1407265.json58822025-05-07 15:32:56
-1407265_1984092_TheOtherHalf_tr02_low.png7209672025-05-07 15:32:56
-1428680.json56042018-11-22 11:31:11
-1428680_2015682_TheOtherHalf_tr_comm_thumb.png2800182018-11-22 11:31:11
-1433111.json134122025-05-08 01:43:31
-1433111_2022089_TheOtherHalf_hearlesssoul_theotherhalf_collab_low.png13430632025-05-08 01:43:31
-1433111_2022091_TheOtherHalf_hearlesssoul_theotherhalf_inks.png2912512025-05-08 01:43:31
-1440885.json60452018-11-22 13:14:21
-1440885_2034545_TheOtherHalf_tr_comm_loud_thumb.png3181502018-11-22 13:14:21
-1451759.json73242025-05-08 08:59:31
-1451759_2050993_TheOtherHalf_joncomm_low.png3276952025-05-08 08:59:31
-1451765.json73292025-05-08 08:59:39
-1451765_2051000_TheOtherHalf_midnightmusercomm_low.png4907802025-05-08 08:59:39
-1451767.json66612025-05-08 08:59:41
-1451767_2051002_TheOtherHalf_mileselskinscomm_low.png3827572025-05-08 08:59:41
-1460432.json84822025-06-24 08:25:11
-1460432_2063320_TheOtherHalf_shado16comm_low.png10437832025-06-24 08:25:11
-1475151.json69632025-07-27 01:29:12
-1475151_2086099_TheOtherHalf_maniccommlow.png5455892025-07-27 01:29:12
-1483052.json59642025-07-26 22:17:39
-1483052_2098427_TheOtherHalf_thumb.png1107732025-07-26 22:17:39
-1483653.json60252025-07-26 22:03:49
-1483653_2099311_TheOtherHalf_thumb.png813342025-07-26 22:03:49
-1484389.json60632025-07-26 21:46:31
-1484389_2100426_TheOtherHalf_zthumb.png2293972025-07-26 21:46:31
-1490140.json62462025-07-26 19:06:03
-1490140_2109348_TheOtherHalf_toh_roll_preview.png1912752025-07-26 19:06:03
-1494141.json96382025-07-26 17:29:52
-1494141_2115288_TheOtherHalf_tohdraws_nov2017.png9851112025-07-26 17:29:52
-1495083.json93082025-07-26 17:05:53
-1495083_2116598_TheOtherHalf_toh_blaze_1k_low_c.png9651032025-07-26 17:05:52
-1495083_2116599_TheOtherHalf_toh_blaze_1k_low.png9067312025-07-26 17:05:53
-1496029.json107532025-07-26 16:42:22
-1496029_2117957_TheOtherHalf_ecomm_low_edit_c.png10674442025-07-26 16:42:22
-1496029_2117958_TheOtherHalf_ecomm_low_edit.png10311132025-07-26 16:42:22
-1496041.json102062025-07-26 16:42:05
-1496041_2117973_TheOtherHalf_ecomm2_low_c_edit.png10348022025-07-26 16:42:05
-1496041_2117976_TheOtherHalf_ecomm2_low_edit.png9836302025-07-26 16:42:06
-1499127.json65562025-07-26 15:30:10
-1499127_2122631_TheOtherHalf_jcomm_low.png5676702025-07-26 15:30:10
-1500792.json72612025-07-26 14:52:20
-1500792_2125276_TheOtherHalf_toh_fk_lia_low.png7197082025-07-26 14:52:20
-1500800.json68522025-07-26 14:52:08
-1500800_2125287_TheOtherHalf_toh_fk_lia2_low.png4601602025-07-26 14:52:08
-1510509.json118502025-07-26 10:58:44
-1510509_2139912_TheOtherHalf_toh_12_days_of_ass-mas_low.png9647692025-07-26 10:58:44
-1510629.json59602025-07-26 10:56:01
-1510629_2140074_TheOtherHalf_toh_comms_2018.png12057962025-07-26 10:56:01
-1512632.json69282025-07-26 10:03:33
-1512632_2143009_TheOtherHalf_toh_banner_2018_low.png10053442025-07-26 10:03:33
-1517453.json68552025-07-26 08:07:55
-1517453_2149960_TheOtherHalf_earth_chan_thumb.png3018392025-07-26 08:07:55
-1517456.json62062018-11-22 23:48:04
-1517456_2149963_TheOtherHalf_trcomm_thumb.png2657272018-11-22 23:48:05
-1517464.json62312018-11-22 23:48:07
-1517464_2149973_TheOtherHalf_toh_trcomm_thumb.png1699212018-11-22 23:48:08
-1517471.json63592025-07-26 08:07:21
-1517471_2149982_TheOtherHalf_toh_beluinescomm_low.png8270042025-07-26 08:07:21
-1517472.json115062025-07-26 08:07:19
-1517472_2149983_TheOtherHalf_toh_tlojhrtcomm01_low.png3807332025-07-26 08:07:19
-1517472_2149990_TheOtherHalf_toh_tlojhrtcomm02_low.png3915502025-07-26 08:07:19
-1517472_2149991_TheOtherHalf_toh_tlojhrtcomm03_low.png3777592025-07-26 08:07:19
-1518887.json86912025-07-26 07:35:43
-1518887_2151924_TheOtherHalf_toh_manicmooncomm_low.png9042612025-07-26 07:35:43
-1520185.json78982025-07-26 07:05:58
-1520185_2153779_TheOtherHalf_toh_boolean_comm_low.png9709112025-07-26 07:05:58
-1522061.json76892025-07-26 06:21:49
-1522061_2156681_TheOtherHalf_toh_lordbackaelcomm_low.png1942582025-07-26 06:21:49
-1522381.json76292025-07-26 06:14:20
-1522381_2157119_TheOtherHalf_toh_sayomi11comm_low.png3724042025-07-26 06:14:20
-1522795.json68642025-07-26 06:04:57
-1522795_2157697_TheOtherHalf_toh_mattgcomm_thumb.png1173572025-07-26 06:04:57
-1523999.json66142025-07-26 05:36:18
-1523999_2159388_TheOtherHalf_astrid_tootless_thumb.png1043942025-07-26 05:36:18
-1524005.json79372025-07-26 05:36:11
-1524005_2159394_TheOtherHalf_toh_cabbyyukicomm_low.png8324412025-07-26 05:36:11
-1524493.json65642025-07-26 05:24:38
-1524493_2160182_TheOtherHalf_toh_wendy_thumb.png5575082025-07-26 05:24:38
-1524501.json69342025-07-26 05:24:23
-1524501_2160196_TheOtherHalf_toh_android_21_thumb.png2525902025-07-26 05:24:23
-1528630.json80972025-07-26 03:47:44
-1528630_2166150_TheOtherHalf_toh_tangle_sketch_low.png2817422025-07-26 03:47:44
-1531953.json68622025-07-26 02:31:25
-1531953_2170934_TheOtherHalf_toh_darthjamaaycomm_thumb.png2964452025-07-26 02:31:25
-1531955.json66472025-07-26 02:31:23
-1531955_2170949_TheOtherHalf_toh_2b_thumb.png3126712025-07-26 02:31:23
-1531956.json73952025-07-26 02:31:21
-1531956_2170951_TheOtherHalf_toh_uploadinggcomm_low.png5521162025-07-26 02:31:21
-1531958.json77392025-07-26 02:31:19
-1531958_2170953_TheOtherHalf_toh_whitewhiskeycomm_low.png3435262025-07-26 02:31:19
-1531971.json70872025-07-26 02:31:00
-1531971_2170968_TheOtherHalf_toh_tangle_low.png3139312025-07-26 02:31:00
-1536085.json79512025-07-26 00:58:40
-1536085_2177400_TheOtherHalf_toh_joncomm01_low.png7801342025-07-26 00:58:40
-1544136.json68612025-07-25 21:49:01
-1544136_2190084_TheOtherHalf_toh_drrichtofencomm_low.png2927512025-07-25 21:49:01
-1544912.json74072025-07-25 21:27:07
-1544912_2191242_TheOtherHalf_toh_nera_valentines_2018_censor.png3956462025-07-25 21:27:07
-1544914.json66082025-07-25 21:27:05
-1544914_2191246_TheOtherHalf_18_workout_low.png5709522025-07-25 21:27:05
-1562387.json102672025-07-25 14:07:55
-1562387_2218407_TheOtherHalf_toh_flashmancomm03_low.png6748442025-07-25 14:07:55
-1562387_2218408_TheOtherHalf_toh_flashmancomm03_lowc.png6757932025-07-25 14:07:55
-1566371.json67982025-07-25 12:33:59
-1566371_2224398_TheOtherHalf_toh_nera2500e_low.png3856732025-07-25 12:33:59
-1570388.json64902025-07-25 10:52:42
-1570388_2231337_TheOtherHalf_toh_hsc01_low.png5027222025-07-25 10:52:42
-1575472.json73222025-07-25 08:33:31
-1575472_2239246_TheOtherHalf_toh_hsccomm02_low.png8920712025-07-25 08:33:31
-1583673.json74632025-07-25 05:17:26
-1583673_2251705_TheOtherHalf_toh_bf09comm_low.png1078842025-07-25 05:17:26
-1590558.json68692025-07-25 02:38:27
-1590558_2262298_TheOtherHalf_toh_bowserjrforever_comm_low.png1510812025-07-25 02:38:27
-1590565.json59022018-11-23 08:34:33
-1590565_2262310_TheOtherHalf_toh_purpistol_comm_low.png3633982018-11-23 08:34:33
-1598039.json57732018-11-23 09:23:42
-1598039_2274350_TheOtherHalf_toh_darthjamaay_comm01_low.png4430522018-11-23 09:23:42
-1598040.json70612025-07-24 23:50:20
-1598040_2274352_TheOtherHalf_raven_horse_censor.png3314062025-07-24 23:50:20
-1603754.json60632018-11-23 10:03:34
-1603754_2283103_TheOtherHalf_toh_darthjamaay_comm02_censor.png4018642018-11-23 10:03:34
-1603756.json64092025-07-24 21:30:46
-1603756_2283105_TheOtherHalf_toh_trcomm_03_low.png3639102025-07-24 21:30:46
-1603759.json72662025-07-24 21:30:42
-1603759_2283109_TheOtherHalf_toh_bluebreed_moody_low1.png4138492025-07-24 21:30:42
-1612896.json71192025-07-24 17:39:12
-1612896_2297946_TheOtherHalf_toh_5k_videl_censor.png2214632025-07-24 17:39:12
-1612900.json73712025-07-24 17:39:05
-1612900_2297950_TheOtherHalf_toh_5k_rainbow_dash_censor.png2961042025-07-24 17:39:05
-1622215.json67722025-07-24 14:03:10
-1622215_2313034_TheOtherHalf_toh_thatguyansemcomm_low.png3036862025-07-24 14:03:10
-1622216.json108802025-07-24 14:03:09
-1622216_2313036_TheOtherHalf_toh_whitewhiskeycomm_low.png1720652025-07-24 14:03:09
-1622216_2313037_TheOtherHalf_toh_whitewhiskeycomm2_low.png1764472025-07-24 14:03:09
-1627678.json57382018-11-23 12:51:38
-1627678_2321925_TheOtherHalf_toh_win2_low.png2933522018-11-23 12:51:39
-1627681.json70182025-07-24 11:48:44
-1627681_2321928_TheOtherHalf_toh_win4_low.png3590752025-07-24 11:48:44
-1633727.json65442018-11-23 13:36:09
-1633727_2331132_TheOtherHalf_toh_gwen_thumb.png1606472018-11-23 13:36:09
-1633731.json62472025-07-24 09:12:39
-1633731_2331136_TheOtherHalf_0_toh_hi_april_2018.png5132542025-07-24 09:12:39
-1646184.json71472025-07-24 04:21:41
-1646184_2349518_TheOtherHalf_toh_win1_thumb.png2245582025-07-24 04:21:41
-1646190.json68612025-07-24 04:21:33
-1646190_2349529_TheOtherHalf_toh_win3_low.png3119192025-07-24 04:21:33
-1646201.json78992025-07-24 04:21:21
-1646201_2349541_TheOtherHalf_toh_tacomm_thumb.png3558722025-07-24 04:21:21
-1646212.json77782025-07-24 04:21:06
-1646212_2349554_TheOtherHalf_yrillcomm_01_thumb.png3222262025-07-24 04:21:06
-1646218.json75232025-07-24 04:20:58
-1646218_2349561_TheOtherHalf_yrillcomm_02_thumb.png4949482025-07-24 04:20:58
-1646428.json72472025-07-24 04:16:24
-1646428_2349841_TheOtherHalf_toh_one_for_all_thumb.png1642582025-07-24 04:16:24
-1646433.json68272025-07-24 04:16:18
-1646433_2349846_TheOtherHalf_toh_gwen_thumb.png1802262025-07-24 04:16:18
-1649840.json74582025-07-24 02:56:08
-1649840_2355217_TheOtherHalf_toh_luz_owl_house_thumb.png2439382025-07-24 02:56:08
-1653580.json61292025-07-24 01:26:58
-1653580_2361119_TheOtherHalf_0_toh_may_2018_hi.png6082292025-07-24 01:26:58
-1657893.json77552025-07-23 23:38:42
-1657893_2367655_TheOtherHalf_toh_new_misty_thumb.png2742802025-07-23 23:38:42
-1659431.json69482025-07-23 22:59:38
-1659431_2369972_TheOtherHalf_toh_amy_surprise_low.png4459442025-07-23 22:59:38
-1673629.json54112025-07-23 16:32:38
-1673629_2391369_TheOtherHalf_0_toh_june_2018_hi.png6047062025-07-23 16:32:38
-1683252.json94362025-07-23 12:41:41
-1683252_2405750_TheOtherHalf_toh_bluebreed_bday2_low.png4029472025-07-23 12:41:39
-1683252_2405753_TheOtherHalf_toh_bluebreed_bday1_low.png3733142025-07-23 12:41:41
-1683282.json70542025-07-23 12:40:43
-1683282_2405797_TheOtherHalf_toh_kim_pines_thumb.png933332025-07-23 12:40:43
-1687929.json78472025-07-23 10:35:44
-1687929_2412688_TheOtherHalf_toh_9k_videl_thumb.png2684862025-07-23 10:35:44
-1696691.json65422025-07-23 07:02:25
-1696691_2425994_TheOtherHalf_tohkaylacomm_low.png5329602025-07-23 07:02:25
-1698224.json79802025-07-23 06:25:42
-1698224_2428366_TheOtherHalf_0_toh_july_2018_hi.png5533412025-07-23 06:25:42
-1713682.json97222025-07-23 00:24:47
-1713682_2451321_TheOtherHalf_tohflashman1_censor.png8375102025-07-23 00:24:47
-1713682_2451322_TheOtherHalf_tohflashman1_censor_c.png8675232025-07-23 00:24:48
-1713687.json100262025-07-23 00:24:41
-1713687_2451327_TheOtherHalf_tohflashman2_censor.png6832142025-07-23 00:24:41
-1713687_2451328_TheOtherHalf_tohflashman2_censor_c.png6991772025-07-23 00:24:41
-1717849.json53012025-07-22 22:44:11
-1717849_2457381_TheOtherHalf_toh_august_2018_hires_thumb.png5546062025-07-22 22:44:11
-1718774.json71522025-07-22 22:23:23
-1718774_2458805_TheOtherHalf_toh_nera_skeleton_thumb.png1803222025-07-22 22:23:23
-1718777.json75482025-07-22 22:23:18
-1718777_2458811_TheOtherHalf_toh_mavis_raven_2_thumb.png2313542025-07-22 22:23:18
-1722730.json67812025-07-22 20:46:29
-1722730_2464596_TheOtherHalf_toh_pyra2_thumb.png3335642025-07-22 20:46:29
-1726831.json105472025-07-22 19:08:12
-1726831_2470418_TheOtherHalf_tohflashman3_cen.png6397482025-07-22 19:08:11
-1726831_2470422_TheOtherHalf_tohflashman3_cen_c.png6530252025-07-22 19:08:12
-1726836.json64772025-07-22 19:08:05
-1726836_2470424_TheOtherHalf_toh_nera_megaman_low.png4260772025-07-22 19:08:05
-1727484.json104542025-07-22 18:52:27
-1727484_2471354_TheOtherHalf_tohflashman4_cen.png7504672025-07-22 18:52:27
-1727484_2471355_TheOtherHalf_tohflashman4_cen_c.png7516122025-07-22 18:52:27
-1728970.json60892025-07-22 18:16:15
-1728970_2473441_TheOtherHalf_toh_punk_rosalina_low.png4319902025-07-22 18:16:15
-1735107.json66522025-07-22 15:30:05
-1735107_2482822_TheOtherHalf_toh_nera_milk_low.png3368502025-07-22 15:30:05
-1735112.json66152025-07-22 15:29:51
-1735112_2482828_TheOtherHalf_toh_colleen_milk_cow_low.png3449332025-07-22 15:29:51
-1739143.json64042025-07-22 13:51:08
-1739143_2489237_TheOtherHalf_0_toh_september_2018_hires_thumb.png5460172025-07-22 13:51:08
-1743353.json64422025-07-22 12:10:27
-1743353_2496734_TheOtherHalf_toh_jenny_xj9_low2.png3322412025-07-22 12:10:27
-1743912.json63662025-07-22 11:56:17
-1743912_2496613_TheOtherHalf_toh_sammisomethingcomm_low.png2121352025-07-22 11:56:17
-1748069.json65732025-07-22 10:12:35
-1748069_2502780_TheOtherHalf_toh_wips.png5337162025-07-22 10:12:35
-1752455.json67332025-07-22 08:26:23
-1752455_2509135_TheOtherHalf_toh_williamthefoxcomm_low.png5567822025-07-22 08:26:23
-1753897.json65202025-07-22 07:53:42
-1753897_2511388_TheOtherHalf_toh_for_bonnypir3_thumb.png4213832025-07-22 07:53:42
-1756550.json66862018-12-03 21:42:49
-1756550_2515437_TheOtherHalf_toh_mha09_thumb.png4048572018-12-03 21:42:50
-1762518.json55412025-07-22 04:32:29
-1762518_2525136_TheOtherHalf_0_toh_october_2018_hires_thumb.png5406352025-07-22 04:32:29
-1765398.json71782025-07-22 03:23:28
-1765398_2529646_TheOtherHalf_toh_assmas_2018_01_thumb.png3557092025-07-22 03:23:28
-1766169.json63612025-07-22 03:05:30
-1766169_2530916_TheOtherHalf_toh_assmas_2018_02_low.png3269652025-07-22 03:05:30
-1766187.json62262018-12-14 22:16:07
-1766187_2530942_TheOtherHalf_toh_mha10_thumb.png4646842018-12-14 22:16:07
-1766930.json68092025-07-22 02:46:56
-1766930_2532119_TheOtherHalf_toh_assmas_2018_03_low.png4153382025-07-22 02:46:56
-1768387.json70822025-07-22 02:13:25
-1768387_2534478_TheOtherHalf_toh_assmas_2018_04_thumb.png3487662025-07-22 02:13:25
-1769004.json68412025-07-22 02:00:12
-1769004_2535599_TheOtherHalf_toh_assmas_2018_05_thumb.png2742352025-07-22 02:00:12
-1769997.json69602025-07-22 01:37:11
-1769997_2537214_TheOtherHalf_toh_assmas_2018_06_thumb.png1933522025-07-22 01:37:11
-1770766.json70932025-07-22 01:18:07
-1770766_2538339_TheOtherHalf_toh_assmas_2018_07_thumb.png2213282025-07-22 01:18:07
-1771585.json67702025-07-22 00:58:33
-1771585_2539536_TheOtherHalf_toh_assmas_2018_08_thumb.png2401972025-07-22 00:58:33
-1772395.json65892025-07-22 00:39:29
-1772395_2540699_TheOtherHalf_toh_assmas_2018_09_low.png3410942025-07-22 00:39:29
-1773191.json68692025-07-22 00:21:22
-1773191_2541858_TheOtherHalf_toh_assmas_2018_10_thumb.png2397782025-07-22 00:21:22
-1773802.json72292025-07-22 00:07:16
-1773802_2542786_TheOtherHalf_toh_assmas_2018_11_thumb.png3583022025-07-22 00:07:16
-1775446.json66352025-07-21 23:26:56
-1775446_2545296_TheOtherHalf_toh_giftwrapped2_low.png6376042025-07-21 23:26:56
-1787209.json68052025-07-21 18:41:07
-1787209_2561864_TheOtherHalf_toh_snookiecomm_low.png4718702025-07-21 18:41:07
-1788112.json58712025-07-21 18:19:01
-1788112_2563240_TheOtherHalf_00_toh_12_days_of_assmas.png11243172025-07-21 18:19:01
-1794266.json56592025-07-21 15:22:49
-1794266_2572899_TheOtherHalf_0_toh_november_2018_hi_thumb.png5963092025-07-21 15:22:49
-1802429.json64882025-07-21 12:01:19
-1802429_2585570_TheOtherHalf_toh_nera_snow_angel_low.png8993532025-07-21 12:01:19
-1805581.json64592025-07-21 10:33:08
-1805581_2590321_TheOtherHalf_toh_roll_working_low.png3389502025-07-21 10:33:08
-1806431.json71892025-07-21 10:10:03
-1806431_2591604_TheOtherHalf_toh_foxiwancomm_low.png6387842025-07-21 10:10:03
-1807982.json67102025-07-21 09:31:15
-1807982_2593901_TheOtherHalf_toh_videl_thumb.png2741402025-07-21 09:31:15
-1817038.json71292025-07-21 05:56:07
-1817038_2607484_TheOtherHalf_toh_vday19_2low.png6588382025-07-21 05:56:07
-1822018.json75322025-07-21 03:55:36
-1822018_2614811_TheOtherHalf_toh_mavis_thumb.png1630992025-07-21 03:55:36
-1827865.json67292025-07-21 01:32:39
-1827865_2624242_TheOtherHalf_toh_pokemon_trainer_thumb.png1841202025-07-21 01:32:39
-1831475.json53922025-07-21 00:03:24
-1831475_2629473_TheOtherHalf_toh_anim_tips_thumb.png940142025-07-21 00:03:24
-1833141.json56862025-07-20 23:17:29
-1833141_2631867_TheOtherHalf_toh_nera25_low.png3470622025-07-20 23:17:29
-1841778.json63922025-07-20 19:35:59
-1841778_2645240_TheOtherHalf_toh_nera_tease_thumb.png2483282025-07-20 19:35:59
-1848338.json63322020-01-17 14:00:25
-1848338_2654946_TheOtherHalf_toh_trcomm1_thumb.png3466012020-01-17 14:00:26
-1853615.json70802025-07-20 10:11:49
-1853615_2662970_TheOtherHalf_toh_nera_april_fools_thumb.png1502512025-07-20 10:11:49
-1859791.json54942019-04-11 21:15:09
-1859791_2672274_TheOtherHalf_toh_trcomm2_thumb.png3345812019-04-11 21:15:09
-1867362.json59742019-04-21 17:20:23
-1867362_2684141_TheOtherHalf_toh_nera_easter_thumb.png2322972019-04-21 17:20:23
-1900178.json63052025-07-19 10:46:47
-1900178_2733886_TheOtherHalf_toh_pyra2_low.png3291342025-07-19 10:46:47
-1910073.json58122025-07-19 07:51:43
-1910073_2749006_TheOtherHalf_toh_arttmadness_at_low.png3590302025-07-19 07:51:43
-1910811.json65452025-07-19 07:39:59
-1910811_2750268_TheOtherHalf_toh_ryzowolfcomm_low.png1917162025-07-19 07:39:59
-1914200.json65532025-07-19 06:43:15
-1914200_2755729_TheOtherHalf_toh_ctr_coco_low2.png6895712025-07-19 06:43:15
-1924666.json71052025-07-19 03:48:01
-1924666_2771411_TheOtherHalf_toh_zelda_undress_thumb.png2860862025-07-19 03:48:01
-1952368.json58582025-07-18 19:34:23
-1952368_2813854_TheOtherHalf_toh_bb_bday_low.png3196432025-07-18 19:34:23
-1954646.json71232025-07-18 18:57:03
-1954646_2817829_TheOtherHalf_toh_gaz_thumb.png1708612025-07-18 18:57:03
-1956933.json72452025-07-18 18:18:00
-1956933_2821197_TheOtherHalf_toh_darthjamaaycomm_thumb.png2367802025-07-18 18:18:00
-1957678.json65112025-07-18 18:05:55
-1957678_2822339_TheOtherHalf_nera_35kc_low1.png3272442025-07-18 18:05:55
-1961756.json139282025-07-18 16:45:08
-1961756_2828789_TheOtherHalf_toh_whitewhiskeycomm_low.png6167162025-07-18 16:45:08
-1961756_2828791_TheOtherHalf_toh_whitewhiskeycomm4_low.png3376292025-07-18 16:45:08
-1961756_2828792_TheOtherHalf_toh_whitewhiskeycomm2_low.png3242902025-07-18 16:45:08
-1961756_2828793_TheOtherHalf_toh_whitewhiskeycomm3_low.png4286412025-07-18 16:45:09
-1962351.json70802025-07-18 16:35:24
-1962351_2829739_TheOtherHalf_toh_zelda_boobjob_thumb.png1372042025-07-18 16:35:24
-1967849.json68082025-07-18 14:52:30
-1967849_2837934_TheOtherHalf_toh_ingrid_third_thumb.png2463652025-07-18 14:52:30
-1973593.json66402025-07-18 13:08:56
-1973593_2846579_TheOtherHalf_toh_pokemon_ranger_1_low_thumb.png1438212025-07-18 13:08:56
-1979961.json67532025-07-18 11:19:43
-1979961_2856497_TheOtherHalf_toh_ttcomm1_low.png3247032025-07-18 11:19:43
-1982031.json99952025-07-18 10:43:22
-1982031_2859648_TheOtherHalf_toh_jonhcomm1_low.png3605932025-07-18 10:43:22
-1982031_2859649_TheOtherHalf_toh_jonhcomm1_low2.png3606552025-07-18 10:43:22
-1985104.json66762025-07-18 09:45:19
-1985104_2864291_TheOtherHalf_toh_may_low2.png3681202025-07-18 09:45:19
-1987338.json66552025-07-18 08:58:29
-1987338_2867766_TheOtherHalf_toh_snookiecomm_low.png4781812025-07-18 08:58:29
-1987347.json62902025-07-18 08:58:22
-1987347_2867777_TheOtherHalf_toh_ghost_nera_low.png4180642025-07-18 08:58:22
-1990485.json65882025-07-18 08:07:17
-1990485_2872600_TheOtherHalf_toh_nera_40k_thumb.png1084612025-07-18 08:07:17
-1992751.json63712025-07-18 07:28:56
-1992751_2875978_TheOtherHalf_toh_nera_pants_thumb.png3151562025-07-18 07:28:56
-1996294.json68392025-07-18 06:27:53
-1996294_2881439_TheOtherHalf_toh_ttcomm2_low.png3513512025-07-18 06:27:53
-1996384.json66842025-07-18 06:26:39
-1996384_2881568_TheOtherHalf_toh_2booty_low3.png2469512025-07-18 06:26:39
-1998475.json61622020-01-12 06:41:44
-1998475_2884586_TheOtherHalf_toh_mavis_pinup_preview.png3468742020-01-12 06:41:44
-2009704.json63292020-01-12 08:27:17
-2009704_2901106_TheOtherHalf_toh_jenny_xj9_2_low.png4219782020-01-12 08:27:17
-2018793.json65152025-07-18 00:20:57
-2018793_2915209_TheOtherHalf_toh_nera_turn_low.png5185542020-01-12 09:50:42
-2018793_3033681_TheOtherHalf_toh_nera_turn_low.png5350602025-07-18 00:20:57
-2022871.json64442020-01-12 10:26:20
-2022871_2921496_TheOtherHalf_toh_mavis_pinup_censor.png9420692020-01-12 10:26:20
-2026902.json68712025-07-17 21:52:52
-2026902_2927821_TheOtherHalf_toh_atti_turn_censor.png4678652025-07-17 21:52:52
-2029247.json69952025-07-17 21:10:11
-2029247_2931407_TheOtherHalf_toh_colleen_turn_low.png5093662025-07-17 21:10:11
-2033657.json69562025-07-17 19:42:45
-2033657_2938273_TheOtherHalf_toh_asipelli_turn_low.png5087302025-07-17 19:42:45
-2035674.json63612025-07-17 19:05:06
-2035674_2941350_TheOtherHalf_toh_scrawled_05_preview.png2087062025-07-17 19:05:06
-2040332.json63802025-07-17 17:48:22
-2040332_2948795_TheOtherHalf_toh_scrawled_06_preview.png2105532025-07-17 17:48:22
-2040445.json68072025-07-17 17:46:44
-2040445_2948956_TheOtherHalf_toh_assmas2019_videl_thumb.png1411532025-07-17 17:46:44
-2041092.json68052025-07-17 17:35:57
-2041092_2949865_TheOtherHalf_toh_assmas2019_toph_thumb.png1660232025-07-17 17:35:57
-2041702.json69432025-07-17 17:26:03
-2041702_2950758_TheOtherHalf_toh_assmas2019_knives_chau_thumb.png1146602025-07-17 17:26:03
-2042476.json62562025-07-17 17:12:25
-2042476_2951988_TheOtherHalf_toh_assmas2019_roxanne_low.png3082612025-07-17 17:12:25
-2043084.json64622025-07-17 17:03:07
-2043084_2952901_TheOtherHalf_toh_assmas2019_tatsumaki_thumb.png2911122025-07-17 17:03:07
-2043914.json69962025-07-17 16:48:43
-2043914_2954131_TheOtherHalf_toh_assmas2019_liz_patty_thumb.png2419632025-07-17 16:48:43
-2044646.json67972025-07-17 16:38:07
-2044646_2955214_TheOtherHalf_toh_assmas2019_nonon_thumb.png1176012025-07-17 16:38:07
-2045251.json61442025-07-17 16:28:21
-2045251_2956067_TheOtherHalf_toh_scrawled_07_preview.png2117702025-07-17 16:28:21
-2045357.json63892025-07-17 16:26:46
-2045357_2956208_TheOtherHalf_toh_assmas2019_mei_thumb.png1924272025-07-17 16:26:46
-2045963.json68712025-07-17 16:16:52
-2045963_2957090_TheOtherHalf_toh_assmas2019_starfire_thumb.png2482232025-07-17 16:16:52
-2046635.json69052025-07-17 16:06:27
-2046635_2958077_TheOtherHalf_toh_assmas2019_toga_thumb.png2355752025-07-17 16:06:27
-2047439.json69092025-07-17 15:52:52
-2047439_2959302_TheOtherHalf_toh_assmas2019_zelda_thumb.png1876022025-07-17 15:52:52
-2048116.json61122020-01-12 14:10:08
-2056089.json60162020-01-12 15:13:44
-2056089_2972173_TheOtherHalf_toh_scrawled_08_preview.png1423362020-01-12 15:13:44
-2057587.json59712020-01-12 15:26:30
-2057587_2974691_TheOtherHalf_toh_scrawled_09_preview.png2359762020-01-12 15:26:31
-2061516.json60602020-01-12 15:59:54
-2061516_2980483_TheOtherHalf_toh_scrawled_10_preview.png2442472020-01-12 15:59:54
-2066589.json73302025-07-17 09:57:59
-2066589_2988571_TheOtherHalf_toh_scrawled_11_preview.png2237752025-07-17 09:57:59
-2067274.json70942025-07-17 09:46:17
-2067274_2989632_TheOtherHalf_toh_luna_sam_2_thumb.png1186322025-07-17 09:46:17
-2071921.json73322025-07-17 08:36:52
-2071921_2996353_TheOtherHalf_toh_scrawled_12_preview.png2034772025-07-17 08:36:52
-2078142.json59062020-02-01 18:48:24
-2078142_3006293_TheOtherHalf_toh_scrawled_13_preview_censor.png1980692020-02-01 18:48:24
-2081198.json64102025-07-17 06:15:52
-2081198_3010924_TheOtherHalf_toh_jucika_thumb.png1330852025-07-17 06:15:52
-2081895.json67492025-07-17 06:03:14
-2081895_3011935_TheOtherHalf_toh_bethanie_turn_low.png4467982025-07-17 06:03:14
-2083236.json69502025-07-17 05:42:43
-2083236_3014006_TheOtherHalf_toh_scrawled_14_preview_censor.png2134672025-07-17 05:42:43
-2087962.json60462020-02-14 18:26:30
-2087962_3021084_TheOtherHalf_toh_scrawled_15_preview2_alt.png1605582020-02-14 18:26:30
-2090511.json67452025-07-17 03:37:53
-2091969.json71402025-07-17 03:07:40
-2091969_3027192_TheOtherHalf_toh_amy_collage_censor.png11032402025-07-17 03:07:40
-2093242.json59922020-02-21 18:42:42
-2093242_3029199_TheOtherHalf_toh_scrawled_16_preview2.png3104932020-02-21 18:42:42
-2100113.json65762020-03-01 18:51:02
-2100113_3039352_TheOtherHalf_toh_scrawled_17_preview.png1912662020-03-01 18:51:02
-2102562.json65182025-07-17 00:15:16
-2102562_3043213_TheOtherHalf_toh_wendy_4b_low.png3967792025-07-17 00:15:16
-2104772.json76612025-07-16 23:37:04
-2104772_3046578_TheOtherHalf_toh_bashful_jiro7_low.png3372082025-07-16 23:37:04
-2107600.json60042020-03-13 19:43:54
-2107600_3050890_TheOtherHalf_toh_scrawled_19_preview.png2538302020-03-13 19:43:54
-2107708.json70342025-07-16 22:45:46
-2107708_3051033_TheOtherHalf_toh_miko_tent_low_thumb.png626742025-07-16 22:45:46
-2109878.json54582020-03-17 18:22:19
-2109878_3054330_TheOtherHalf_toh_gaige_low1.png5625952020-03-17 18:22:19
-2113645.json58622020-03-21 18:53:40
-2113645_3060103_TheOtherHalf_toh_scrawled_20_preview.png2767452020-03-21 18:53:40
-2115232.json57982020-03-23 21:25:06
-2115232_3062573_TheOtherHalf_toh_daisy_collage_censor.png9078762020-03-23 21:25:06
-2117411.json62472025-07-16 19:49:08
-2117411_3065798_TheOtherHalf_toh_sdchan_low.png3242592025-07-16 19:49:08
-2118180.json60262020-03-27 20:31:52
-2118180_3066924_TheOtherHalf_toh_scrawled_21_preview.png2605572020-03-27 20:31:53
-2123042.json61002020-04-02 20:28:49
-2123042_3074523_TheOtherHalf_toh_scrawled_22_preview.png2256812020-04-02 20:28:49
-2123798.json69152025-07-16 17:52:35
-2123798_3075731_TheOtherHalf_toh_game_changer_01_preview.png3712962025-07-16 17:52:35
-2126358.json62692020-04-07 12:43:17
-2126358_3079555_TheOtherHalf_toh_wendy_5c_low.png3653942020-04-07 12:43:17
-2128045.json68412025-07-16 16:38:29
-2128045_3083054_TheOtherHalf_toh_game_changer_02_preview.png2409362025-07-16 16:38:29
-2129795.json59922020-04-10 20:19:21
-2129795_3085599_TheOtherHalf_toh_scrawled_23_preview.png2277292020-04-10 20:19:21
-2134173.json67362025-07-16 14:47:28
-2134173_3092213_TheOtherHalf_toh_game_changer_03_preview.png3005552025-07-16 14:47:28
-2135729.json60852020-04-17 20:22:06
-2135729_3094573_TheOtherHalf_toh_scrawled_24_preview.png3534142020-04-17 20:22:07
-2138335.json64322025-07-16 13:33:27
-2140075.json60382020-04-22 20:12:53
-2140075_3101285_TheOtherHalf_toh_game_changer_04_preview.png3351682020-04-22 20:12:53
-2142409.json61262020-04-25 17:36:23
-2142409_3104937_TheOtherHalf_toh_scrawled_25_preview.png3011552020-04-25 17:36:23
-2145765.json72162025-07-16 11:41:41
-2145765_3110398_TheOtherHalf_toh_game_changer_05_preview.png4334092025-07-16 11:41:41
-2147508.json72802025-07-16 11:12:19
-2147508_3113152_TheOtherHalf_toh_midna_collage_censor.png21390922025-07-16 11:12:19
-2148220.json72232025-07-16 10:59:58
-2148220_3114302_TheOtherHalf_toh_scrawled_26_preview.png2757472025-07-16 10:59:58
-2151787.json59932020-05-06 20:25:19
-2151787_3119892_TheOtherHalf_toh_game_changer_06_preview.png3043272020-05-06 20:25:19
-2153427.json61282020-05-08 20:33:27
-2153427_3122167_TheOtherHalf_toh_scrawled_27_preview.png3750442020-05-08 20:33:27
-2154256.json63222025-07-16 09:14:11
-2154256_3123454_TheOtherHalf_toh_ryuko_low_4.png3103622025-07-16 09:14:11
-2157846.json69502025-07-16 08:16:23
-2157846_3128803_TheOtherHalf_toh_game_changer_07_preview.png2819862025-07-16 08:16:23
-2159384.json58592020-05-15 17:34:59
-2160141.json60132020-05-16 17:32:28
-2160141_3132719_TheOtherHalf_toh_scrawled_28_preview.png3297562020-05-16 17:32:28
-2161899.json59432020-05-18 20:37:49
-2163405.json60522020-05-20 20:21:19
-2163405_3137960_TheOtherHalf_toh_game_changer_08_preview.png2816122020-05-20 20:21:19
-2165055.json69242025-07-16 06:12:31
-2165055_3140504_TheOtherHalf_toh_scrawled_29_preview.png4093132025-07-16 06:12:31
-2165695.json56812020-05-23 17:29:11
-2165695_3141642_TheOtherHalf_toh_gwen_goth_day_low2.png4524202020-05-23 17:29:11
-2167350.json61912020-05-25 20:33:51
-2167968.json62222020-05-26 17:19:48
-2167968_3145298_TheOtherHalf_toh_scrawled_21_censor.png9138152020-05-26 17:19:48
-2168839.json60512020-05-27 20:53:23
-2168839_3146580_TheOtherHalf_toh_game_changer_09_preview.png2513012020-05-27 20:53:23
-2170290.json63562020-05-30 12:35:15
-2170290_3148953_TheOtherHalf_toh_scrawled_30_preview.png2522322020-05-30 12:35:15
-2174025.json58242020-06-03 20:21:16
-2174025_3154888_TheOtherHalf_toh_game_changer_10_preview.png4134402020-06-03 20:21:16
-2175493.json74722025-07-16 03:24:29
-2175493_3157212_TheOtherHalf_toh_scrawled_31_preview.png2754402025-07-16 03:24:29
-2179269.json59052020-06-10 20:38:25
-2179269_3162765_TheOtherHalf_toh_game_changer_11_preview.png2225352020-06-10 20:38:25
-2180805.json76322025-07-16 01:57:44
-2180805_3165277_TheOtherHalf_toh_scrawled_32_preview.png2251462025-07-16 01:57:44
-2182187.json64782025-07-16 01:33:36
-2182187_3167511_TheOtherHalf_toh_ratchette_and_clank_low1.png7827972025-07-16 01:33:36
-2183838.json56142020-06-23 16:09:58
-2183838_3169936_TheOtherHalf_toh_jiro_room_low9.png6905942020-06-23 16:09:58
-2184626.json59772020-06-23 18:37:02
-2184626_3171117_TheOtherHalf_toh_game_changer_12_preview.png3554212020-06-23 18:37:04
-2186188.json60742020-06-23 19:52:03
-2186188_3173335_TheOtherHalf_toh_scrawled_33_preview.png2785522020-06-23 19:52:04
-2188664.json57702020-06-23 22:35:58
-2188664_3177443_TheOtherHalf_toh_ty_lee_collage_censor.png9270702020-06-23 22:36:00
-2189443.json67352025-07-15 23:32:58
-2189443_3178595_TheOtherHalf_toh_nera_thanks_low.png3914862025-07-15 23:32:58
-2190267.json59542020-06-24 20:12:35
-2190267_3179843_TheOtherHalf_toh_game_changer_13_preview.png2534472020-06-24 20:12:36
-2192440.json60782020-06-27 17:16:24
-2192440_3183158_TheOtherHalf_toh_scrawled_34_preview.png3330852020-06-27 17:16:25
-2201122.json60312020-07-08 20:32:54
-2201122_3197370_TheOtherHalf_toh_game_changer_14_preview.png1863162020-07-08 20:32:57
-2202581.json74742025-07-15 19:25:07
-2202581_3199506_TheOtherHalf_toh_scrawled_35_preview.png2595142025-07-15 19:25:07
-2204925.json55142020-07-13 20:14:54
-2204925_3203150_TheOtherHalf_toh_raven_timelapse_censor.png5439352020-07-13 20:14:55
-2206419.json67472025-07-15 18:22:22
-2206419_3205369_TheOtherHalf_toh_game_changer_15_preview.png3530092025-07-15 18:22:22
-2208003.json75082025-07-15 17:57:30
-2208003_3207569_TheOtherHalf_toh_scrawled_36_preview.png2372252025-07-15 17:57:30
-2210375.json58852020-07-20 20:17:32
-2211875.json93542020-07-22 20:27:49
-2213960.json69312025-07-15 16:14:34
-2213960_3216726_TheOtherHalf_toh_scrawled_37_preview.png2767872025-07-15 16:14:34
-2219278.json68462025-07-15 14:42:52
-2219278_3224813_TheOtherHalf_toh_scrawled_38_preview.png3287442025-07-15 14:42:52
-2220003.json68582025-07-15 14:31:17
-2220003_3225912_TheOtherHalf_toh_jenny_flash_censor.gif11531442025-07-15 14:31:17
-2220780.json60192025-07-15 14:17:53
-2220780_3227205_TheOtherHalf_toh_sailor_moon_thumb.png3453242025-07-15 14:17:53
-2221757.json71292025-07-15 14:01:26
-2221757_3228767_TheOtherHalf_toh_seeking_attention_01_preview.png6254092025-07-15 14:01:26
-2223290.json72092025-07-15 13:37:21
-2223290_3231259_TheOtherHalf_toh_seeking_attention_02_preview.png3138472025-07-15 13:37:21
-2226158.json91292025-07-15 12:51:59
-2226158_3235598_TheOtherHalf_toh_cocojam_low.png7136422025-07-15 12:51:59
-2226158_3235600_TheOtherHalf_toh_cocojam_low2.png7301732025-07-15 12:51:59
-2227064.json67512025-07-15 12:36:24
-2232172.json57012020-08-17 20:27:34
-2237502.json56472025-07-15 09:25:05
-2237502_3252948_TheOtherHalf_toh_miko_low1.png3833482025-07-15 09:25:05
-2244130.json62012025-07-15 07:41:55
-2244130_3263093_TheOtherHalf_toh_miko_ass_censor.png8575402025-07-15 07:41:55
-2246879.json62512020-09-29 22:44:39
-2246879_3267413_TheOtherHalf_tohss_low1_censor.png3687572020-09-29 22:44:42
-2247698.json92962020-09-08 14:32:22
-2247698_3268665_TheOtherHalf_toh_seeking_attention_05_preview.png2316182020-09-08 14:32:22
-2247698_3268666_TheOtherHalf_toh_seeking_attention_06_preview.png2448652020-09-08 14:32:22
-2252424.json63782025-07-15 05:28:19
-2252424_3275621_TheOtherHalf_toh_kim_pine_flash_thumb.png3817052025-07-15 05:28:19
-2254316.json59552020-09-14 20:27:12
-2258148.json83342025-07-15 03:55:48
-2258148_3284227_TheOtherHalf_toh_bday_booty_censor.png6596322025-07-15 03:55:48
-2259942.json60572020-09-30 04:16:13
-2259942_3286981_TheOtherHalf_toh_leaf_collage_censor.png11834752020-09-30 04:16:15
-2263532.json115542025-07-15 02:29:18
-2263532_3292621_TheOtherHalf_toh_punk_amy_low2.png6271792025-07-15 02:29:18
-2263532_3292623_TheOtherHalf_toh_punk_amy_low3.png6302602025-07-15 02:29:18
-2263532_3292624_TheOtherHalf_toh_punk_amy_low1.png6221672025-07-15 02:29:18
-2268464.json61272025-07-16 08:15:40
-2268464_3300525_TheOtherHalf_toh_tawna_ass_low2.png4601072025-07-16 08:15:40
-2277118.json65892020-10-15 06:59:52
-2282677.json61402020-10-19 21:08:01
-2289091.json69312025-07-14 20:00:29
-2289091_3334372_TheOtherHalf_toh_princess_raven_low1.png5397072025-07-14 20:00:29
-2291677.json71032025-07-14 19:15:29
-2291677_3338561_TheOtherHalf_toh_scrawled_50_censor.png2382442025-07-14 19:15:29
-2292662.json74332025-07-14 18:57:45
-2292662_3340485_TheOtherHalf_toh_asi_halloween_thumb.png2324092025-07-14 18:57:45
-2300512.json64322020-11-12 18:26:56
-2312751.json87982020-11-25 18:37:21
-2312751_3374036_TheOtherHalf_santa_nera_2020_preview1.png6573592020-11-25 18:37:21
-2312751_3374037_TheOtherHalf_santa_nera_2020_preview2_censor.png6513742020-11-25 18:37:25
-2317612.json75182025-07-14 10:34:59
-2317612_3381819_TheOtherHalf_toh_axxmas_2020_preview.png6469782025-07-14 10:34:59
-2326873.json72502025-07-14 07:46:16
-2326873_3396571_TheOtherHalf_toh_axxmas_2020_01_ryuko_thumb.png4075232025-07-14 07:46:16
-2327581.json73442025-07-14 07:36:00
-2327581_3397738_TheOtherHalf_toh_axxmas_2020_02_azazel_thumb.png3415162025-07-14 07:36:00
-2328233.json70852025-07-14 07:27:00
-2328233_3398666_TheOtherHalf_toh_axxmas_2020_03_millie_low1.png4852702025-07-14 07:27:00
-2328943.json70502025-07-14 07:17:06
-2328943_3399856_TheOtherHalf_toh_axxmas_2020_04_uraraka_thumb.png2618852025-07-14 07:17:06
-2329747.json71602025-07-14 07:06:27
-2329747_3401084_TheOtherHalf_toh_axxmas_2020_05_chel_thumb.png2340282025-07-14 07:06:27
-2330378.json78472025-07-14 06:57:49
-2330378_3402035_TheOtherHalf_toh_axxmas_2020_06_veldaph_thumb.png3673002025-07-14 06:57:49
-2331012.json73882025-07-14 06:49:05
-2331012_3402923_TheOtherHalf_toh_axxmas_2020_07_yoko_thumb.png4790132025-07-14 06:49:05
-2331901.json71342025-07-14 06:36:49
-2331901_3404207_TheOtherHalf_toh_axxmas_2020_08_tawna_low.png5894642025-07-14 06:36:49
-2332569.json70422025-07-14 06:27:06
-2332569_3405179_TheOtherHalf_toh_axxmas_2020_09_mikasa_thumb.png2191472025-07-14 06:27:06
-2333352.json71872025-07-14 06:15:51
-2333352_3406334_TheOtherHalf_toh_axxmas_2020_10_starb_thumb.png3301732025-07-14 06:15:51
-2333435.json64902020-12-22 21:23:10
-2334302.json74232025-07-14 06:02:20
-2334302_3408041_TheOtherHalf_toh_axxmas_2020_darkmaggirl_thumb.png4030042025-07-14 06:02:20
-2337316.json65432020-12-27 18:34:10
-2337316_3412588_TheOtherHalf_toh_seeking_attention_12_censor.png11622552020-12-27 18:34:11
-2346849.json60592021-01-09 04:28:21
-2346849_3427866_TheOtherHalf_toh_beth_male_swimsuit_censor.png4332872021-01-09 04:28:22
-2349041.json64162025-07-14 02:24:12
-2349041_3431435_TheOtherHalf_toh_visma_low1.png6134102025-07-14 02:24:12
-2354478.json57782021-01-18 21:21:02
-2359386.json86322025-07-14 19:06:03
-2359386_3448254_TheOtherHalf_toh_ponytail_amy_redo_low.png5082332025-07-14 19:06:03
-2359386_3448255_TheOtherHalf_redo_this.png3753032025-07-14 19:06:03
-2360251.json66142025-07-13 23:35:47
-2360251_3449778_TheOtherHalf_toh_loona_collage_censor.png7535392025-07-13 23:35:47
-2370992.json130802025-07-13 20:58:47
-2370992_3468090_TheOtherHalf_toh_cocos_wumpas_low1.png5479662025-07-13 20:58:47
-2370992_3468091_TheOtherHalf_toh_cocos_wumpas_low2.png6629152025-07-13 20:58:47
-2370992_3468092_TheOtherHalf_toh_cocos_wumpas_low3.png6460092025-07-13 20:58:47
-2370992_3468094_TheOtherHalf_toh_cocos_wumpas_low4.png6454772025-07-13 20:58:47
-2376187.json53962021-02-14 22:31:13
-2376187_3476192_TheOtherHalf_tohvalentines_2021_censor.png5113782021-02-14 22:31:17
-2377718.json60402021-02-16 21:17:36
-2377718_3478578_TheOtherHalf_toh_videl_timelapse_preview1.png6931892021-02-16 21:17:37
-2382326.json58062021-02-22 21:17:30
-2382326_3486217_TheOtherHalf_toh_nagatoro_collage_censor.png10650172021-02-22 21:17:31
-2388606.json65902025-07-13 16:18:31
-2388606_3496387_TheOtherHalf_toh_90k_low2.png7801552025-07-13 16:18:31
-2390902.json64162025-07-13 15:41:28
-2390902_3500063_TheOtherHalf_toh_hhcharlie_thumb.png3574202025-07-13 15:41:28
-2394123.json71622025-07-13 14:46:56
-2394123_3505061_TheOtherHalf_toh_nera_atti_1k_low.png6984492025-07-13 14:46:56
-2394801.json66122025-07-13 17:56:44
-2394801_3506179_TheOtherHalf_toh_lola_low.png1946272025-07-13 17:56:44
-2396477.json65492021-03-12 21:23:56
-2396477_3508911_TheOtherHalf_toh_seeking_attention_23_censor.png9705942021-03-12 21:23:57
-2397256.json62102021-03-13 21:30:35
-2397256_3510115_TheOtherHalf_toh_panty_stocking_pinup_censor.png7421452021-03-13 21:30:36
-2399503.json60312021-03-16 20:19:06
-2403818.json62012021-03-22 21:12:00
-2407695.json55802021-04-03 04:34:05
-2407695_3526554_TheOtherHalf_toh_beth_sneakers_censor.png5466942021-04-03 04:34:07
-2413779.json62182025-07-13 09:39:55
-2413779_3536081_TheOtherHalf_toh_miko_easter_low2.png2013742025-07-13 09:39:55
-2419947.json58482021-04-13 06:01:06
-2419947_3545992_TheOtherHalf_toh_jenny_censor.gif23426892021-04-13 06:01:08
-2422701.json55842021-10-18 19:02:58
-2424177.json76962021-10-18 21:24:31
-2424177_3552621_TheOtherHalf_toh_poiya_low1.png4160102021-10-18 21:24:31
-2424177_3552622_TheOtherHalf_toh_poiya_low2.png4264292021-10-18 21:24:31
-2428061.json53872021-10-19 06:14:39
-2432161.json55472021-10-19 11:24:45
-2432161_3565023_TheOtherHalf_toh_nera_atti_2k_censor.png5917162021-10-19 11:24:46
-2443858.json61172021-05-22 18:06:27
-2453116.json102532025-07-13 15:08:06
-2453116_3598703_TheOtherHalf_toh_lola_timelapse_censor.png6036702025-07-13 15:08:06
-2453116_3598704_TheOtherHalf_toh_lola_timelapse_censor2.png6572492025-07-13 15:08:06
-2454651.json64092025-07-13 00:30:38
-2454651_3601194_TheOtherHalf_toh_nera_atti_3k_preview.png3846782025-07-13 00:30:38
-2468192.json58342021-10-21 15:58:05
-2468918.json96802021-10-21 17:19:16
-2468918_3624073_TheOtherHalf_toh_seeking_attention_44_alt_censor.png5932842021-10-21 17:19:16
-2468918_3624075_TheOtherHalf_toh_seeking_attention_00_censor.png9750392021-10-21 17:19:17
-2473147.json61512021-07-09 15:16:47
-2479906.json102992025-07-12 18:20:13
-2479906_3641686_TheOtherHalf_toh_college_connie_low.png4064972025-07-12 18:20:13
-2479906_3641689_TheOtherHalf_toh_college_experience_01_preview.png3685232025-07-12 18:20:13
-2481262.json54732021-07-09 23:21:54
-2481262_3643914_TheOtherHalf_toh_mei_hatsume_censor.png5222232021-07-09 23:21:55
-2485168.json58152021-10-22 14:28:27
-2485168_3650279_TheOtherHalf_toh_nera_atti_5k_censor.png5621132021-10-22 14:28:28
-2487542.json58032021-10-22 18:28:46
-2487542_3654115_TheOtherHalf_toh_starfire_censor.png8709462021-10-22 18:28:46
-2491130.json59802021-07-24 20:03:12
-2491130_3659971_TheOtherHalf_toh_toph_collage_low_preview2.png13164702021-07-24 20:03:13
-2492368.json56182021-10-23 02:58:09
-2492368_3662208_TheOtherHalf_toh_tracer_censor.png4095432021-10-23 02:58:10
-2496512.json60942021-10-23 09:02:56
-2496512_3669054_TheOtherHalf_toh_lapises_censor.png5959032021-10-23 09:02:56
-2503245.json119072025-07-12 12:38:11
-2503245_3679871_TheOtherHalf_toh_rivet_timelapse_censor2.png7955772025-07-12 12:38:11
-2503245_3679872_TheOtherHalf_toh_rivet_timelapse_censor3.png6851982025-07-12 12:38:10
-2507742.json50522021-10-24 04:21:32
-2507742_3687202_TheOtherHalf_toh_adora_catra_low.png5613782021-10-24 04:21:32
-2512163.json56742021-10-24 09:29:44
-2512163_3694853_TheOtherHalf_toh_sucy_censor.png8761332021-10-24 09:29:45
-2527958.json121762025-07-12 05:05:01
-2527958_3719891_TheOtherHalf_toh_roxanne_timelapse_preview2.png6082672025-07-12 05:05:00
-2527958_3719893_TheOtherHalf_toh_roxanne_timelapse_preview3.png7722352025-07-12 05:05:01
-2528565.json86372025-07-12 04:53:53
-2528565_3720866_TheOtherHalf_toh_at_icy_low.png4456042025-07-12 04:53:53
-2528565_3720867_TheOtherHalf_toh_at_icy2_low.png1592462025-07-12 04:53:53
-2531378.json56802021-10-25 13:27:59
-2531378_3725616_TheOtherHalf_toh_at_nutsfw_censor.png8939122021-10-25 13:27:59
-2533237.json62252025-07-12 03:35:12
-2533237_3728874_TheOtherHalf_toh_carmelita_fox_low.png8458452025-07-12 03:35:12
-2540353.json58962021-10-26 02:54:00
-2541037.json53722021-10-26 03:40:47
-2543793.json56092021-10-26 06:48:32
-2543793_3746542_TheOtherHalf_toh_vanessa_d_censor.png4232632021-10-26 06:48:32
-2544485.json55062021-10-26 07:45:06
-2544485_3747671_TheOtherHalf_toh_punk_ryuko_censor.png6851832021-10-26 07:45:06
-2545351.json55542021-10-26 08:18:48
-2545351_3749043_TheOtherHalf_toh_at_deviantcactus_censor.png4108432021-10-26 08:18:48
-2552719.json54952021-10-26 19:46:02
-2552719_3760919_TheOtherHalf_toh_at_gekasso_censor.png7287222021-10-26 19:46:02
-2555590.json55822021-10-26 23:44:34
-2559288.json51382021-10-27 04:00:42
-2559288_3771459_TheOtherHalf_toh_cherrypix_at_censor.png6694082021-10-27 04:00:42
-2563064.json53482021-10-27 09:10:05
-2563064_3777469_TheOtherHalf_toh_at_trishapickle_low.png9278262021-10-27 09:10:05
-2564444.json83852021-10-27 10:58:57
-2564444_3779664_TheOtherHalf_toh_amity_timelapse_low3.png4945972021-10-27 10:58:57
-2564444_3779666_TheOtherHalf_toh_amity_timelapse_low29.png4802832021-10-27 10:58:57
-2572684.json58082021-11-08 21:22:58
-2572684_3793770_TheOtherHalf_toh_bubble_girl_censor.png7089272021-11-08 21:22:58
-2579078.json55142021-11-27 22:39:09
-2579078_3804262_TheOtherHalf_toh_aelita_censor.png8015182021-11-27 22:39:09
-2585441.json52332021-11-27 23:42:15
-2585441_3814218_TheOtherHalf_toh_shinobu_censor.png4613552021-11-27 23:42:15
-2587025.json58212021-11-27 23:58:02
-2589773.json56692021-12-07 20:06:54
-2589773_3821138_TheOtherHalf_toh_mha_burnin_censor.png7004212021-12-07 20:06:55
-2601647.json58502021-12-23 21:09:09
-2601647_3840431_TheOtherHalf_toh_axxmas_2021_raven_censor.png5611662021-12-23 21:09:09
-2602330.json65292025-07-11 10:33:53
-2602330_3841471_TheOtherHalf_02_toh_axxmas_2021_coco_low.png6561832025-07-11 10:33:53
-2603082.json61872025-07-11 10:22:40
-2603082_3842587_TheOtherHalf_03_toh_axxmas_2021_loona_low.png5428232025-07-11 10:22:40
-2603942.json58192021-12-23 21:15:24
-2603942_3843870_TheOtherHalf_toh_axxmas_2021_mako_censor.png5200222021-12-23 21:15:24
-2604717.json56492022-01-03 22:11:24
-2604717_3845011_TheOtherHalf_toh_axxmas_2021_kim_censor.png4537482022-01-03 22:11:24
-2605363.json55892021-12-23 21:22:38
-2605363_3846218_TheOtherHalf_toh_axxmas_2021_miko_censor.png3830962021-12-23 21:22:38
-2605405.json59492021-12-23 21:22:47
-2606171.json64952025-07-11 09:38:38
-2606171_3847602_TheOtherHalf_07_toh_axxmas_2021_michiru_low.png6996502025-07-11 09:38:38
-2607209.json57082022-01-03 22:35:57
-2607209_3849388_TheOtherHalf_toh_axxmas_2021_frankie_censor.png4898522022-01-03 22:35:57
-2607756.json57242022-01-03 22:42:39
-2607756_3850513_TheOtherHalf_toh_axxmas_2021_gwenpool_censor.png6665632022-01-03 22:42:39
-2608601.json57712021-12-23 21:34:19
-2608601_3851799_TheOtherHalf_toh_axxmas_2021_momo_censor.png4833272021-12-23 21:34:20
-2608609.json83772021-12-23 21:34:21
-2608609_3851819_TheOtherHalf_toh_cortana_preview2.png4735202021-12-23 21:34:21
-2609211.json53892021-12-23 21:36:31
-2609211_3852725_TheOtherHalf_11_toh_axxmas_2021_gwen_low.png4662722021-12-23 21:36:32
-2625547.json52152022-01-16 23:48:20
-2625547_3878896_TheOtherHalf_toh_nina_censor.png4367302022-01-16 23:48:20
-2629310.json54852022-01-23 11:33:38
-2633056.json50052022-01-30 11:16:56
-2633056_3891062_TheOtherHalf_toh_giant_days_low1.png10276512022-01-30 11:16:58
-2634780.json59932022-01-30 12:19:20
-2634780_3893605_TheOtherHalf_toh_velma_timelapse_preview5xtra.png9150002022-01-30 12:19:21
-2641575.json54232022-02-06 11:46:10
-2641575_3903970_TheOtherHalf_toh_mamablue_at_censor.png5866862022-02-06 11:46:10
-2650146.json59072022-02-20 11:45:54
-2650146_3917586_TheOtherHalf_toh_terra_comic_censorib.png10586972022-02-20 11:45:55
-2655353.json54322022-02-27 11:18:33
-2655353_3925907_TheOtherHalf_toh_kida_timelapse_censor1.png6178672022-02-27 11:18:33
-2661362.json56252022-03-06 11:28:37
-2670465.json65912025-07-10 18:29:49
-2670465_3950134_TheOtherHalf_toh_gaz_look_thumb.png4470722025-07-10 18:29:49
-2677007.json58232022-03-27 10:14:18
-2681972.json62222025-07-10 15:17:10
-2681972_3968098_TheOtherHalf_toh_chel_low.png5978042025-07-10 15:17:10
-2686597.json64112025-07-10 14:06:11
-2686597_3975628_TheOtherHalf_toh_pidge_low4.png3474382025-07-10 14:06:11
-2696775.json58412022-04-20 10:20:01
-2696775_3992542_TheOtherHalf_toh_spidergwen_collage_censor.png26574432022-04-20 10:20:01
-2708899.json72192025-07-10 17:46:13
-2714034.json55562022-05-21 17:45:06
-2714034_4020055_TheOtherHalf_toh_kim_pine_censor.png5170752022-05-21 17:45:06
-2714675.json57812022-05-21 18:00:14
-2714675_4021182_TheOtherHalf_toh_nera_glass_censor.png9262022022-05-21 18:00:14
-2730995.json58262022-06-05 10:52:37
-2730995_4047249_TheOtherHalf_toh_kim_pine_timelapse_censor2.png7328362022-06-05 10:52:37
-2741286.json55992022-06-19 10:40:38
-2741286_4064019_TheOtherHalf_toh_nera_atti_4k_censor.png6253232022-06-19 10:40:39
-2779730.json56932022-08-07 10:07:23
-2779730_4124997_TheOtherHalf_toh_rayla_collage_censor.png27088702022-08-07 10:07:23
-2795962.json60932022-08-28 10:25:14
-2795962_4151330_TheOtherHalf_toh_futaba_collage_censor1.png40756472022-08-28 10:25:14
-2800407.json66982025-07-09 09:02:18
-2800407_4158443_TheOtherHalf_toh_at_d3zz_preview.png3318902025-07-09 09:02:18
-2819806.json60312025-07-09 04:31:25
-2819806_4188933_TheOtherHalf_toh_rebecca_low3.png8125402025-07-09 04:31:25
-2837314.json59382025-07-10 00:01:32
-2837314_4215999_TheOtherHalf_toh_lonna_look_low1.png11728152025-07-10 00:01:32
-2837944.json64662025-07-09 00:07:03
-2837944_4216861_TheOtherHalf_toh_nera_30k_low.png11464972025-07-09 00:07:03
-2877588.json65432025-07-08 13:17:27
-2877588_4281654_TheOtherHalf_toh_axxmas_2022_preview2.png22492082025-07-08 13:17:27
-2879329.json60412025-07-08 12:41:16
-2879329_4284516_TheOtherHalf_toh_nera_assmas_sfw_promo_low.png28958002025-07-08 12:41:16
-2879860.json73922025-07-08 12:31:32
-2879860_4285300_TheOtherHalf_toh_nera_assmas_promo_preview.png15326722025-07-08 12:31:32
-2880715.json70312025-07-08 12:15:56
-2880715_4286628_TheOtherHalf_toh_assmas_rebecca_low2.png18461542025-07-08 12:15:56
-2881338.json65652025-07-08 12:04:35
-2881338_4287688_TheOtherHalf_toh_assmas_lola_low.png14086602025-07-08 12:04:35
-2882037.json65862025-07-08 11:50:40
-2882037_4288808_TheOtherHalf_toh_assmas_ruby_low2.png21703892025-07-08 11:50:40
-2882830.json66642025-07-08 11:37:42
-2882830_4290146_TheOtherHalf_toh_assmas_power_preview.png5555682025-07-08 11:37:42
-2883469.json63632025-07-08 11:25:15
-2883469_4291222_TheOtherHalf_toh_assmas_kimp_low3.png12884302025-07-08 11:25:15
-2884278.json72952025-07-08 11:11:50
-2884278_4292569_TheOtherHalf_toh_assmas_mavis_preview.png4058562025-07-08 11:11:50
-2884996.json67442025-07-08 10:58:36
-2884996_4293642_TheOtherHalf_toh_assmas_mirko_low1.png15881402025-07-08 10:58:36
-2885675.json72902025-07-08 10:45:34
-2885675_4294697_TheOtherHalf_toh_assmas_lumity_preview.png11170252025-07-08 10:45:34
-2886362.json134862025-07-08 10:28:51
-2886362_4295766_TheOtherHalf_toh_assmas_vi_low5.png15550762025-07-08 10:28:50
-2886362_4295770_TheOtherHalf_toh_assmas_vi_low6.png16735782025-07-08 10:28:50
-2886362_4295776_TheOtherHalf_toh_assmas_vi_low2.png15397722025-07-08 10:28:51
-2886362_4295778_TheOtherHalf_toh_assmas_vi_low3.png16587282025-07-08 10:28:51
-2887007.json68882025-07-08 10:14:10
-2887007_4296759_TheOtherHalf_toh_assmas_huntress_wizard_preview.png8110432025-07-08 10:14:10
-2887761.json65022025-07-08 09:53:12
-2887761_4297901_TheOtherHalf_toh_assmas_shantae_low3.png14162992025-07-08 09:53:12
-2888600.json70292025-07-08 09:36:10
-2888600_4299132_TheOtherHalf_toh_assmas_scrawled_low2.png35873062025-07-08 09:36:10
-2895945.json68062025-07-08 07:28:40
-2895945_4311548_TheOtherHalf_toh_assmas_mirko_preview.png9858332025-07-08 07:28:40
-2897788.json60712025-07-08 06:59:07
-2897788_4314597_TheOtherHalf_toh_rouge_outfit_low.png9806282025-07-08 06:59:07
-2903774.json68932025-07-08 05:24:02
-2903774_4324394_TheOtherHalf_toh_nera_bunny_1_low.png8517642025-07-08 05:24:02
-2905240.json68342025-07-08 04:59:26
-2905240_4326770_TheOtherHalf_toh_assmas_rebecca_thumb.png5396912025-07-08 04:59:26
-2914246.json97832025-07-08 02:20:56
-2914246_4340999_TheOtherHalf_toh_nera_bunny_2_low.png11340542025-07-08 02:20:55
-2914246_4341000_TheOtherHalf_toh_bunny_nera_asi_2b_preview.png4056292025-07-08 02:20:56
-2929361.json59432025-07-07 21:10:48
-2929361_4366443_TheOtherHalf_toh_gwen_low.png9525262025-07-07 21:10:48
-2931636.json60142025-07-07 20:17:26
-2931636_4370455_TheOtherHalf_toh_nera_winter_slip_low.png13712472025-07-07 20:17:26
-2943952.json70012025-07-06 00:03:02
-2943952_4390204_TheOtherHalf_toh_synnhouse_at_low2.png16447802025-07-06 00:03:02
-296378.json62872025-04-19 04:54:34
-296378_380062_TheOtherHalf_comm_htu_1_scaled.png6589122025-04-19 04:54:34
-296381.json65742025-04-19 04:54:38
-296381_380065_TheOtherHalf_comm_htu2_scaled.png3184212025-04-19 04:54:38
-296384.json64752025-04-19 04:54:42
-296384_380068_TheOtherHalf_comm_king.png562272025-04-19 04:54:42
-296386.json59442025-04-19 04:54:44
-296386_380072_TheOtherHalf_tentacled_mina.png7890002025-04-19 04:54:44
-296389.json62832025-04-19 04:54:48
-296389_380076_TheOtherHalf_princess_in_peril_sized.png9005942025-04-19 04:54:48
-296392.json54272025-04-19 04:54:52
-296392_380079_TheOtherHalf_pinup_sally.png8536222025-04-19 04:54:52
-296396.json57072025-04-19 04:54:56
-296396_380083_TheOtherHalf_quick_amy.png2243982025-04-19 04:54:56
-296399.json66942025-04-19 04:55:00
-296399_380086_TheOtherHalf_nicole.png4591222025-04-19 04:55:00
-296402.json62992025-04-19 04:55:04
-296402_380089_TheOtherHalf_comm_info5.png5316822025-04-19 04:55:04
-296430.json61192025-04-19 04:55:39
-296430_380116_TheOtherHalf_at_mfzbee.png2412252025-04-19 04:55:39
-296437.json59822025-04-19 04:55:49
-296437_380125_TheOtherHalf_amy_tentacled.png2587552025-04-19 04:55:49
-296439.json60132025-04-19 04:55:52
-296439_380127_TheOtherHalf_nicole_digital.png3902622025-04-19 04:55:52
-296442.json61512025-04-19 04:55:55
-296442_380129_TheOtherHalf_decisions_final.png4461712025-04-19 04:55:55
-296445.json57542025-04-19 04:55:59
-296445_380132_TheOtherHalf_thanksgiving_2011.png3621142025-04-19 04:55:59
-296449.json60332025-04-19 04:56:04
-296449_380136_TheOtherHalf_fa_10k_final.png3993982025-04-19 04:56:04
-296451.json59982025-04-19 04:56:06
-296451_380138_TheOtherHalf_amy_anal_final.png3795272025-04-19 04:56:06
-296454.json60312025-04-19 04:56:11
-296454_380142_TheOtherHalf_mina_sonic_color.png5513392025-04-19 04:56:11
-296457.json63352025-04-19 04:56:16
-296457_380146_TheOtherHalf_xmas_2011_color.png10217712025-04-19 04:56:16
-296461.json63372025-04-19 04:56:23
-296461_380150_TheOtherHalf_xmas_r_joethehedgehog_color.png1329042025-04-19 04:56:23
-296463.json69282025-04-19 04:56:25
-296463_380152_TheOtherHalf_xmas_r_kenji321_color.png1888372025-04-19 04:56:25
-296465.json64092025-04-19 04:56:28
-296465_380154_TheOtherHalf_xmas_r_teruzu91_color.png1445632025-04-19 04:56:28
-296468.json65972025-04-19 04:56:32
-296468_380157_TheOtherHalf_xmas_r_toxicko_color.png3712052025-04-19 04:56:32
-296470.json67542025-04-19 04:56:34
-296470_380160_TheOtherHalf_xmas_r_zetar02_color.png1606952025-04-19 04:56:34
-296473.json66082025-04-19 04:56:38
-296473_380163_TheOtherHalf_comm_chaoscroc_2.jpg1692082025-04-19 04:56:38
-296476.json67692025-04-19 04:56:41
-296476_380167_TheOtherHalf_comm_chaoscroc_1.jpg1532402025-04-19 04:56:41
-296477.json59682025-04-19 04:56:42
-296477_380168_TheOtherHalf_dat_ass_color.png3441832025-04-19 04:56:42
-296479.json59492025-04-19 04:56:45
-296479_380170_TheOtherHalf_rainbow_dash_color.png9494402025-04-19 04:56:45
-296481.json66052025-04-19 04:56:47
-296481_380172_TheOtherHalf_comm_chaoscroc2_sized.jpg670582025-04-19 04:56:47
-296482.json54932025-04-19 04:56:48
-296482_380173_TheOtherHalf_lara_su_butt_sized.png5520352025-04-19 04:56:48
-296484.json67842025-04-19 04:56:51
-296484_380175_TheOtherHalf_classic_amy_metal_color.png4437172025-04-19 04:56:51
-296486.json63792025-04-19 04:56:53
-296486_380178_TheOtherHalf_juliesu_aftermath_color.png6851282025-04-19 04:56:53
-296490.json57412025-04-19 04:56:58
-296490_380182_TheOtherHalf_trade_frozesolidfox_color.png3790392025-04-19 04:56:58
-296495.json65142025-04-19 04:57:04
-296495_380187_TheOtherHalf_blaze_anim_test.swf2583212025-04-19 04:57:04
-296496.json54972025-04-19 04:57:07
-296496_380188_TheOtherHalf_hazard_sketches_color.png5885402025-04-19 04:57:07
-296500.json64652025-04-19 04:57:12
-296500_380193_TheOtherHalf_amy_gym_color.png5119272025-04-19 04:57:12
-2965430.json70522025-07-05 17:37:46
-2965430_4425923_TheOtherHalf_toh_kim_knives_low.png10609952025-07-05 17:37:46
-296552.json62192025-04-19 04:58:11
-296552_380243_TheOtherHalf_julie_showing_off_color4.png4042232025-04-19 04:58:11
-2966198.json63922025-07-05 17:24:52
-2966198_4427129_TheOtherHalf_toh_comm_hexanne_thumb.png6625812025-07-05 17:24:52
-2966847.json79012023-04-09 10:45:28
-2966847_4428104_TheOtherHalf_toh_imposter_1.png4522352023-04-09 10:45:28
-2966847_4428106_TheOtherHalf_toh_imposter_2.png2194942023-04-09 10:45:28
-2981342.json65822025-07-05 12:52:20
-2981342_4454502_TheOtherHalf_toh_nera_glass_discord.png9611442025-07-05 12:52:20
-2991409.json78232025-07-05 09:28:53
-2991409_4470596_TheOtherHalf_toh_scrawled_128_preview.png4104412025-07-05 09:28:53
-2996281.json76922025-07-04 18:27:17
-2996281_4478214_TheOtherHalf_toh_the_witching_hour_32_thumb.png3696532025-07-04 18:27:17
-299965.json77572025-04-19 06:11:27
-299965_384780_TheOtherHalf_sergewolf_ib_prize.jpg427112025-04-19 06:11:27
-299967.json70182025-04-19 06:11:30
-299967_384782_TheOtherHalf_hearlesssoul_ib_prize.jpg323462025-04-19 06:11:30
-299969.json73502025-04-19 06:11:32
-299969_384785_TheOtherHalf_felinegamer_ib_prize.jpg378232025-04-19 06:11:32
-299978.json76772025-04-19 06:11:44
-299978_384799_TheOtherHalf_shadowwalk_mina.jpg493212025-04-19 06:11:44
-300197.json63452025-04-19 06:16:32
-300197_385077_TheOtherHalf_tails_y_sketches.jpg736042025-04-19 06:16:32
-3021377.json81062025-07-04 10:15:48
-3021377_4518759_TheOtherHalf_toh_scrawled_130_thumb.png8581022025-07-04 10:15:48
-303086.json59742025-04-19 07:18:04
-303086_388912_TheOtherHalf_ponytail_amy_color.png3774362025-04-19 07:18:04
-304653.json53752025-04-19 07:54:08
-304653_391207_TheOtherHalf_comm_amethese.jpg528432025-04-19 07:54:08
-304657.json56102025-04-19 07:54:13
-304657_391211_TheOtherHalf_comm_amethese_2.jpg321772025-04-19 07:54:13
-304682.json79452025-04-19 07:54:44
-304682_391240_TheOtherHalf_ib_10k_color_updated.png3725152025-04-19 07:54:44
-305301.json78202025-04-19 08:07:45
-305301_392050_TheOtherHalf_comm_friskecrisps.png488862025-04-19 08:07:45
-305305.json93022025-04-19 08:07:50
-305305_392054_TheOtherHalf_comm_kenji321_final.png627412025-04-19 08:07:50
-3058460.json68302025-07-03 23:40:35
-3058460_4579097_TheOtherHalf_toh_luz_surfer_low2.png10924712025-07-03 23:40:35
-305899.json69802025-04-19 08:19:49
-305899_392724_TheOtherHalf_comm_serenity_2.jpg498892025-04-19 08:19:49
-305901.json65192025-04-19 08:19:51
-305901_392726_TheOtherHalf_comm_serenity_1_final.png2815652025-04-19 08:19:51
-3069203.json65832025-07-03 20:28:59
-3069203_4595629_TheOtherHalf_toh_lois_costume_low.png6222432025-07-03 20:28:59
-307929.json73462025-04-19 09:02:57
-307929_395569_TheOtherHalf_comm_macavity_thumb.png362482025-04-19 09:02:57
-3093834.json69832025-07-03 12:49:36
-3093834_4635188_TheOtherHalf_toh_beach_amity_low3.png9317332025-07-03 12:49:36
-3099572.json78262025-07-03 10:51:58
-3099572_4644620_TheOtherHalf_toh_scrawled_139_low.png12147632025-07-03 10:51:58
-3100659.json62802025-07-03 10:27:36
-3100659_4646255_TheOtherHalf_toh_lackadaisy_2_low.png2358762025-07-03 10:27:36
-3119581.json69472025-07-03 04:49:25
-3119581_4680404_TheOtherHalf_toh_amy_low.png3351652025-07-03 04:49:25
-3136273.json65612025-07-02 23:39:34
-3136273_4710318_TheOtherHalf_toh_ryuko_low1.png12085282025-07-02 23:39:34
-3169017.json71342025-07-02 13:09:52
-3169017_4763252_TheOtherHalf_toh_halloween_scrawled_low.png21059092025-07-02 13:09:52
-317914.json115762025-04-19 13:14:12
-317914_408070_TheOtherHalf_sally_halloween_2012_color.png15861272025-04-19 13:14:12
-3179521.json67542025-07-02 09:32:03
-3179521_4780884_TheOtherHalf_toh_scott_pilgrim_girls_low.png10923032025-07-02 09:32:03
-320541.json83552025-04-19 14:13:15
-320541_411484_TheOtherHalf_zeta_contest_final.png7345462025-04-19 14:13:15
-3209428.json68942025-07-02 00:36:51
-3209428_4831829_TheOtherHalf_toh_nera_xmas_thumb.png7751022025-07-02 00:36:51
-3211013.json60352025-07-02 00:09:16
-3211013_4834556_TheOtherHalf_tohsanta_yotomoe_low1.png20408892025-07-02 00:09:16
-3211678.json58402025-07-01 23:56:03
-3211678_4835711_TheOtherHalf_tohsanta_yotomoe2_low1.png6933672025-07-01 23:56:03
-3247444.json61202025-07-01 12:40:13
-3247444_4897674_TheOtherHalf_toh_kroox_low.png19766032025-07-01 12:40:13
-3275675.json56112025-07-01 03:35:51
-3275675_4948531_TheOtherHalf_toh_surge_workout_low.png2137032025-07-01 03:35:51
-3301545.json57262025-06-30 18:46:04
-3301545_4996476_TheOtherHalf_sr_surge_human_low2.png16544442025-06-30 18:46:04
-3306798.json59302025-06-30 16:40:35
-3306798_5005054_TheOtherHalf_toh_rukia_tomboy_low.png7587742025-06-30 16:40:35
-3309679.json71152025-06-30 15:39:50
-3309679_5009566_TheOtherHalf_toh_blaze_oral_low.png16451722025-06-30 15:39:50
-331470.json83612025-04-19 18:12:41
-331470_425677_TheOtherHalf_old_meets_new_color.png6145542025-04-19 18:12:41
-3325098.json62102025-06-30 09:51:32
-3325098_5038076_TheOtherHalf_toh_kim_oneil_low.png7586162025-06-30 09:51:32
-3384197.json60902025-06-29 13:53:48
-3384197_5141413_TheOtherHalf_toh_mas_surge_low.png13227092025-06-29 13:53:48
-3391306.json63722025-06-29 11:07:33
-3391306_5153451_TheOtherHalf_toh_surge_spread_low1.png11684952025-06-29 11:07:33
-3394612.json58382025-06-29 09:35:13
-3394612_5158985_TheOtherHalf_toh_zzz_zhu_yuan_jane_doe_low2.png9077952025-06-29 09:35:13
-339539.json83412025-04-19 21:07:27
-339539_436213_TheOtherHalf_amy_fiona_bums_sized.png718422025-04-19 21:07:27
-3397200.json56992025-06-29 08:46:13
-3397200_5163222_TheOtherHalf_toh_zzz_qingyi_low.png10664332025-06-29 08:46:13
-3404961.json65632025-06-29 06:00:50
-3404961_5176769_TheOtherHalf_toh_scrawled_getting_comfortable_00b_low4.png12930332025-06-29 06:00:50
-3408951.json60102025-06-29 04:34:00
-3408951_5183896_TheOtherHalf_toh_brmiku_low.png10304062025-06-29 04:34:00
-342352.json57542018-11-18 20:29:25
-342352_439773_TheOtherHalf_0_fucks_122112_color.png3468502018-11-18 20:29:25
-344148.json63732025-04-19 22:55:30
-344148_442052_TheOtherHalf_amy_xmas12_color3.png3937912025-04-19 22:55:30
-346991.json77502025-04-19 23:55:36
-346991_445661_TheOtherHalf_amy_is_contest_color.png4553912025-04-19 23:55:36
-3479162.json65162025-06-28 03:51:12
-3479162_5306766_TheOtherHalf_toh_nera_bluesky_low2.png7634692025-06-28 03:51:12
-352750.json77042025-04-20 01:56:57
-352750_453155_TheOtherHalf_cream_tikal_preview.png499642025-04-20 01:56:57
-356881.json75432025-04-20 03:25:18
-356881_458583_TheOtherHalf_com_ick_color.png6278482025-04-20 03:25:18
-358151.json77542025-04-20 03:51:41
-358151_460190_TheOtherHalf_7_asses.png4105752025-04-20 03:51:41
-358254.json65572025-04-20 03:53:50
-358254_460335_TheOtherHalf_armorkuwagata_comm_color.png7563842025-04-20 03:53:50
-364527.json70282025-04-20 06:07:57
-364527_468652_TheOtherHalf_practice_sketches.jpg405722025-04-20 06:07:57
-3645575.json61662025-06-24 10:50:11
-3645575_5609808_TheOtherHalf_toh_kheil_oz_low1.png13948442025-06-24 10:50:11
-365821.json76972025-04-20 06:35:48
-365821_470277_TheOtherHalf_stream_2-9-13.jpg534422025-04-20 06:35:48
-366301.json60702025-04-20 06:46:29
-366301_470910_TheOtherHalf_shade_ink.png3189072025-04-20 06:46:29
-3712962.json67512025-09-23 23:31:55
-3712962_5729400_TheOtherHalf_toh_tangle_whisper_crossworlds_low1.png13012432025-09-23 23:31:55
-372902.json66602025-04-20 09:09:22
-372902_479501_TheOtherHalf_amy_bodypillow_test.png790452025-04-20 09:09:22
-3729179.json63222025-10-16 05:51:54
-3729179_5757714_TheOtherHalf_toh_punk_buzz_ryuko_low.png9732252025-10-16 05:51:54
-3734045.json67102025-10-22 20:51:34
-3734045_5766801_TheOtherHalf_toh_surge_flash_low.png12645422025-10-22 20:51:34
-374298.json76372025-04-20 09:42:44
-374298_481222_TheOtherHalf_amy_fiona_bums_color.png7223812025-04-20 09:42:44
-3751097.json55682025-11-14 23:57:28
-3751097_5796750_TheOtherHalf_toh_blaze_jacket_low.png35050502025-11-14 23:57:28
-375392.json67242025-04-20 10:21:47
-375392_482664_TheOtherHalf_amy_bodypillow_color.png7772202025-04-20 10:21:47
-378572.json75172025-04-20 11:48:05
-378572_486912_TheOtherHalf_croc_comm_wave_blaze_sized.jpg10433112025-04-20 11:48:05
-378574.json75192025-04-20 11:48:08
-378574_486915_TheOtherHalf_bbmbbf_at_color.png5497812025-04-20 11:48:08
-3803016.json115142026-01-29 21:41:28
-3803016_5889782_TheOtherHalf_toh_michiru_sit_low3.png8867312026-01-29 21:41:27
-3803016_5889783_TheOtherHalf_toh_michiru_sit_low2.png9337552026-01-29 21:41:27
-3803016_5889784_TheOtherHalf_toh_michiru_sit_low1.png9086512026-01-29 21:41:28
-386873.json68882025-04-20 15:43:45
-386873_497669_TheOtherHalf_serenity_at_color.png4696052025-04-20 15:43:45
-394861.json63082025-04-20 18:44:50
-394861_508531_TheOtherHalf_sally_bodypillow_color2.png6171702025-04-20 18:44:50
-396082.json63932025-04-20 19:12:32
-396082_510099_TheOtherHalf_amy_bleh_test.png1016572025-04-20 19:12:32
-399987.json60782025-04-20 20:38:34
-399987_515071_TheOtherHalf_blaze_grooming.png1799542025-04-20 20:38:34
-402585.json69922025-04-20 21:35:20
-402585_518622_TheOtherHalf_blaze_sonic_tails_sized.png465832025-04-20 21:35:20
-406562.json60222025-04-20 23:06:57
-406562_524046_TheOtherHalf_mina_stretch.png3951072025-04-20 23:06:57
-416691.json99942025-04-21 02:51:26
-416691_537258_TheOtherHalf_5-23_sketches.jpg7103882025-04-21 02:51:26
-421545.json62632025-04-21 04:36:22
-421545_543654_TheOtherHalf_julies_machine.png1255232025-04-21 04:36:22
-443744.json79882025-04-21 12:45:42
-443744_573650_TheOtherHalf_comm-kenji321_sized.png3388882025-04-21 12:45:42
-443748.json75512025-04-21 12:45:47
-443748_573654_TheOtherHalf_comm-teenflash09_sized.jpg4283492025-04-21 12:45:47
-443749.json54382025-04-21 12:45:49
-443749_573655_TheOtherHalf_comm-amethese_sized.jpg4679832025-04-21 12:45:49
-448681.json68812025-04-21 14:37:43
-448681_580036_TheOtherHalf_comm-superbh.png429682025-04-21 14:37:43
-448683.json57502025-04-21 14:37:45
-448683_580038_TheOtherHalf_comm-urtheart_sized.jpg328742025-04-21 14:37:45
-455276.json63892025-04-21 17:06:03
-455276_589422_TheOtherHalf_nicole_swimsuit.png1676652025-04-21 17:06:03
-458235.json79252025-04-21 18:12:25
-458235_593490_TheOtherHalf_00_preview_2.png1504752025-04-21 18:12:25
-460895.json58482025-04-21 19:10:53
-460895_597183_TheOtherHalf_rainbow_ass.png2232852025-04-21 19:10:53
-460899.json65202025-04-21 19:10:58
-460899_597189_TheOtherHalf_sal_nicole.png2143042025-04-21 19:10:58
-480790.json78692025-04-22 02:43:43
-480790_624505_TheOtherHalf_sal_nicole_celebrate_test.png933772025-04-22 02:43:43
-482232.json67072025-04-22 03:15:30
-482232_626405_TheOtherHalf_sal_nicole_celebrate_edit.png6649902025-04-22 03:15:30
-493842.json80122025-04-13 02:35:52
-493842_642088_TheOtherHalf_sketches_10-17.jpg2302822025-04-13 02:35:52
-499186.json64822025-04-13 04:31:41
-499186_649704_TheOtherHalf_songbird.png6735312025-04-13 04:31:41
-505315.json66112025-04-13 06:40:16
-505315_658074_TheOtherHalf_sketches_11-8_sized.jpg1762472025-04-13 06:40:16
-544515.json85042025-04-13 20:47:48
-544515_713120_TheOtherHalf_jan_sketches_2.jpg11293212025-04-13 20:47:48
-544524.json90732025-04-13 20:47:59
-544524_713132_TheOtherHalf_jan_sketches_1.jpg9792742025-04-13 20:47:59
-544529.json87772025-04-13 20:48:08
-544529_713137_TheOtherHalf_jan_sketches_3.jpg12375332025-04-13 20:48:08
-547937.json58772025-04-13 22:01:36
-547937_717801_TheOtherHalf_coco_pommel.png3768332025-04-13 22:01:36
-556070.json65592025-04-14 01:06:41
-556070_728977_TheOtherHalf_comm-neroth.png1311822025-04-14 01:06:41
-558978.json73982025-04-14 02:09:32
-558978_732816_TheOtherHalf_comm-chacumera2.png5542282025-04-14 02:09:32
-559982.json60582025-04-14 02:31:30
-559982_734074_TheOtherHalf_comm-shocker.png3096472025-04-14 02:31:30
-569802.json66122025-04-14 05:59:40
-569802_747553_TheOtherHalf_comm-blackjackaught2sized.jpg432882025-04-14 05:59:40
-569809.json55512025-04-14 05:59:49
-569809_747560_TheOtherHalf_comm-blackjackaught3sized.jpg448722025-04-14 05:59:49
-569811.json51702025-04-14 05:59:51
-569811_747562_TheOtherHalf_comm-chaoscroc1sized.jpg726872025-04-14 05:59:51
-569812.json60292025-04-14 05:59:52
-569812_747563_TheOtherHalf_comm-chaoscroc2sized.jpg759742025-04-14 05:59:52
-572798.json65322025-04-14 07:09:36
-572798_752269_TheOtherHalf_comm-blackjackaught1_text.png2617602025-04-14 07:09:36
-574521.json63152025-04-14 07:46:14
-574521_754249_TheOtherHalf_comm-gryphman.png4169272025-04-14 07:46:14
-579527.json66062025-04-14 09:44:40
-579527_760788_TheOtherHalf_chaoscroc_comic_sized.jpg6405572025-04-14 09:44:40
-580338.json66312025-04-23 10:39:19
-580338_761796_TheOtherHalf_blaze_fashion_preview.png1796842025-04-23 10:39:19
-580379.json74042025-04-23 10:40:11
-580379_761848_TheOtherHalf_sketches_3-9-14.png1852982025-04-23 10:40:11
-584331.json63762025-04-23 12:06:52
-584331_767139_TheOtherHalf_beach_sally.png7932612025-04-23 12:06:52
-589695.json69532025-04-23 14:07:05
-589695_774398_TheOtherHalf_sketches_3-28-14.png2387492025-04-23 14:07:05
-602370.json65552025-04-23 19:50:14
-602370_791279_TheOtherHalf_bunnie_easter.png1919882025-04-23 19:50:14
-609496.json74962025-04-23 22:31:41
-609496_801007_TheOtherHalf_amy_quickee2.png4804462025-04-23 22:31:41
-611339.json65862025-04-23 23:13:23
-611339_803770_TheOtherHalf_lara_su_finger.png3069992025-04-23 23:13:23
-612602.json101442025-04-23 23:40:15
-612602_805455_TheOtherHalf_comm-darthmind.png9176762025-04-23 23:40:15
-613336.json69732025-04-23 23:56:12
-613336_806425_TheOtherHalf_amu_trade.png3329772025-04-23 23:56:12
-643555.json81612025-04-24 11:13:22
-643555_848631_TheOtherHalf_sketches_7-8.jpg5216342025-04-24 11:13:22
-648779.json89862025-04-24 13:22:48
-648779_856029_TheOtherHalf_comm_area37_1.jpg3813922025-04-24 13:22:47
-648779_856030_TheOtherHalf_comm_area37_2.jpg3829982025-04-24 13:22:48
-648783.json65932025-04-24 13:22:53
-648783_856034_TheOtherHalf_comm_shadowwalk_sized.jpg4599462025-04-24 13:22:53
-648784.json62452025-04-24 13:22:54
-648784_856035_TheOtherHalf_comm_bbbuuu_sized.jpg4783592025-04-24 13:22:54
-648858.json68392025-04-24 13:24:35
-648858_856130_TheOtherHalf_comm_aaa20_1_inked.png2356722025-04-24 13:24:35
-648859.json61992025-04-24 13:24:37
-648859_856131_TheOtherHalf_comm_aaa20_2.png1509782025-04-24 13:24:37
-650301.json59032025-04-24 13:58:40
-650301_858131_TheOtherHalf_comm_joykill.png2756122025-04-24 13:58:40
-651339.json70832025-04-24 14:21:21
-651339_859543_TheOtherHalf_hello_perci.png5735382025-04-24 14:21:21
-652410.json65172025-04-24 14:45:47
-652410_861039_TheOtherHalf_comm_kiyoshifox.png4577242025-04-24 14:45:47
-652440.json66832025-04-24 14:46:29
-652440_861075_TheOtherHalf_comm_metalsonic87.png2461722025-04-24 14:46:29
-653632.json84382025-04-24 15:13:15
-653632_862835_TheOtherHalf_a_day_at_the_beach_test.png1588542025-04-24 15:13:15
-653830.json67362025-04-24 15:18:15
-653830_863078_TheOtherHalf_comm_shocker.png3926082025-04-24 15:18:15
-654163.json67492025-04-24 15:25:37
-654163_863486_TheOtherHalf_comm_kenji321.png1954472025-04-24 15:25:37
-658982.json69022025-04-24 17:15:30
-658982_870509_TheOtherHalf_comm_chacumera.png1894522025-04-24 17:15:30
-659220.json62282025-04-24 17:21:35
-659220_870902_TheOtherHalf_comm_teenflash09.png2198492025-04-24 17:21:35
-659967.json69402025-04-24 17:38:41
-659967_871938_TheOtherHalf_comm_blaze53_1.png2796202025-04-24 17:38:41
-661826.json67602025-04-24 18:22:46
-661826_874517_TheOtherHalf_comm_thaman_sized.jpg11592542025-04-24 18:22:46
-661894.json58982025-04-24 18:24:50
-661894_874606_TheOtherHalf_comm_amethese.png1735342025-04-24 18:24:50
-667734.json62202025-04-24 20:50:29
-667734_882965_TheOtherHalf_comm_blaze53_2.png4626312025-04-24 20:50:29
-671204.json70422025-04-24 22:12:58
-671204_888672_TheOtherHalf_comm-blaze53_3.png4057512025-04-24 22:12:58
-682393.json61172025-04-25 02:25:35
-682393_904434_TheOtherHalf_amy_werehog.png2524372025-04-25 02:25:35
-682584.json74742025-04-25 02:29:32
-682584_904678_TheOtherHalf_amy_boy_shorts.png2917652025-04-25 02:29:32
-683471.json98732025-04-25 02:49:25
-683471_905885_TheOtherHalf_bb_toh.png7644862025-04-25 02:49:25
-689831.json71452025-04-25 05:10:12
-689831_915070_TheOtherHalf_blaze_booty.png3014402025-04-25 05:10:12
-690991.json118512025-04-25 05:36:26
-690991_916725_TheOtherHalf_20k_clean.png10581072025-04-25 05:36:26
-690991_916727_TheOtherHalf_20k_cummy.png11027982025-04-25 05:36:26
-728440.json61402025-04-25 19:21:01
-728440_979326_TheOtherHalf_amy_quicke2.png3778162025-04-25 19:21:01
-730429.json82082025-04-25 20:07:29
-730429_982454_TheOtherHalf_sketches_11-13-14_edit.jpg10367062025-04-25 20:07:29
-730604.json100782025-04-25 20:11:19
-730604_982692_TheOtherHalf_sonic_boomed_preview.png1627792025-04-25 20:11:19
-737586.json71372025-04-25 22:49:26
-737586_993153_TheOtherHalf_lara_su.png1874442025-04-25 22:49:26
-738093.json100262025-04-25 23:00:45
-738093_993952_TheOtherHalf_nov_previews.png8322892025-04-25 23:00:45
-741182.json63842025-04-26 00:07:00
-741182_999059_TheOtherHalf_amy_doodle.png1144052025-04-26 00:07:00
-750057.json69072025-04-26 03:24:09
-750057_1012391_TheOtherHalf_tikal_sonic_2.png2335752025-04-26 03:24:09
-758808.json73562025-04-26 06:39:16
-758808_1025099_TheOtherHalf_amy_xmas.png3711672025-04-26 06:39:16
-758853.json72582025-04-26 06:40:18
-758853_1025167_TheOtherHalf_blaze_xmas.png4791512025-04-26 06:40:18
-762392.json76802025-04-26 07:57:34
-762392_1030218_TheOtherHalf_xmas_2014.png11767382025-04-26 07:57:34
-770213.json88152025-04-26 10:58:03
-770213_1041001_TheOtherHalf_mysterydemon_trade.png4207252025-04-26 10:58:03
-777556.json92402025-04-26 13:43:26
-777556_1051028_TheOtherHalf_cream_tikal_color.png6190722025-04-26 13:43:26
-779905.json84012025-04-26 14:36:43
-779905_1054124_TheOtherHalf_sonic_boomed.png20465312025-04-26 14:36:43
-785763.json83592025-04-26 16:43:04
-785763_1062124_TheOtherHalf_sally_boom_toh_censored.png11632452025-04-26 16:43:04
-798469.json62412025-04-26 21:26:57
-798469_1079947_TheOtherHalf_dhk1989_comm.png2182352025-04-26 21:26:57
-798471.json62232025-04-26 21:27:01
-798471_1079952_TheOtherHalf_urtheart_comm.png3294292025-04-26 21:27:01
-798545.json60192025-04-26 21:28:32
-798545_1080058_TheOtherHalf_aaa20_1.png1353672025-04-26 21:28:32
-798547.json68082025-04-26 21:28:34
-798547_1080059_TheOtherHalf_aaa20_2.png1752502025-04-26 21:28:34
-798665.json62542025-04-26 21:31:15
-798665_1080234_TheOtherHalf_jadeee.png3636012025-04-26 21:31:15
-799920.json61732025-04-26 22:01:20
-799920_1082087_TheOtherHalf_shocker_1.png4357542025-04-26 22:01:20
-799923.json59242025-04-26 22:01:24
-799923_1082091_TheOtherHalf_shocker_2.png3035672025-04-26 22:01:24
-800622.json94562025-04-26 22:17:39
-800622_1083106_TheOtherHalf_whitewhiskey_2.png2952682025-04-26 22:17:39
-800622_1083107_TheOtherHalf_whitewhiskey_1.png2964692025-04-26 22:17:39
-802377.json68792025-04-26 23:00:07
-802377_1085618_TheOtherHalf_blaze53_1.png3159102025-04-26 23:00:07
-802380.json65832025-04-26 23:00:11
-802380_1085621_TheOtherHalf_blaze53_2.png9894882025-04-26 23:00:11
-804691.json94312025-04-26 23:51:42
-804691_1088879_TheOtherHalf_darthmind_1_thumb.png491442025-04-26 23:51:42
-804691_1088880_TheOtherHalf_darthmind_2.png2496742025-04-26 23:51:43
-806257.json66222025-04-27 00:25:34
-806257_1091045_TheOtherHalf_metalsonic87.png3634052025-04-27 00:25:34
-806262.json58902025-04-27 00:25:40
-806262_1091056_TheOtherHalf_krisprowler.png3420592025-04-27 00:25:40
-823997.json85392025-04-27 06:47:09
-823997_1118290_TheOtherHalf_4-2-15_sketches.png29203132025-04-27 06:47:09
-837567.json65302025-04-27 12:06:34
-837567_1137355_TheOtherHalf_armorkuwagata_censor.png4016132025-04-27 12:06:34
-837696.json62102025-04-27 12:09:18
-837696_1137558_TheOtherHalf_takehito12_1.png2204572025-04-27 12:09:18
-837697.json65642025-04-27 12:09:20
-837697_1138051_TheOtherHalf_takehito12_2_edit.png2496062025-04-27 12:09:20
-839522.json68032025-04-27 12:49:50
-839522_1140229_TheOtherHalf_blackjackaught.png3197382025-04-27 12:49:50
-840010.json65802025-04-27 13:00:11
-840010_1140917_TheOtherHalf_blaze53_comm_3_edit.png5518442025-04-27 13:00:11
-841245.json73432025-04-27 13:28:59
-841245_1142910_TheOtherHalf_comm_blaze53_4.png3337792025-04-27 13:28:59
-841314.json66492025-04-27 13:30:49
-841314_1143704_TheOtherHalf_comm_blaze53_5.png4212652025-04-27 13:30:49
-848999.json63782025-04-27 16:33:04
-848999_1153554_TheOtherHalf_comm_blaze53_6.png7967992025-04-27 16:33:04
-849002.json67962025-04-27 16:33:07
-849002_1153557_TheOtherHalf_comm_blaze53_7.png8355752025-04-27 16:33:07
-850325.json63922025-04-27 17:10:58
-850325_1155572_TheOtherHalf_comm_blaze53_8.png6693282025-04-27 17:10:58
-850329.json62642025-04-27 17:11:03
-850329_1155574_TheOtherHalf_comm_blaze53_9.png8604172025-04-27 17:11:03
-857601.json76172025-04-27 20:00:19
-857601_1165860_TheOtherHalf_futa_julie_su.png3651212025-04-27 20:00:19
-857988.json80102025-04-27 20:09:06
-857988_1166551_TheOtherHalf_futa_julie_su_non.png3298922025-04-27 20:09:06
-862800.json63462025-04-27 22:03:29
-862800_1173199_TheOtherHalf_nicole_sonic.png7103022025-04-27 22:03:29
-864785.json83162025-04-27 22:46:48
-864785_1175945_TheOtherHalf_6-4-15_sketches.jpg720702025-04-27 22:46:48
-867020.json112232025-04-27 23:37:46
-867020_1179141_TheOtherHalf_puyopuyo_amy_final1.png9249282025-04-27 23:37:46
-867020_1179142_TheOtherHalf_puyopuyo_amy_final2.png5980132025-04-27 23:37:46
-872399.json72982025-04-28 01:39:01
-872399_1186719_TheOtherHalf_comm_dakina.png8037222025-04-28 01:39:01
-879812.json72602025-04-28 04:20:15
-879812_1197459_TheOtherHalf_comm_piercebrosnan.png5461252025-04-28 04:20:15
-889602.json81412025-04-28 07:56:53
-889602_1211867_TheOtherHalf_comm_dakina2_censor.png6558152025-04-28 07:56:53
-891797.json61312025-04-28 08:47:16
-891797_1214898_TheOtherHalf_comm_shadowwalk1.png3920072025-04-28 08:47:16
-895081.json58222025-04-28 10:02:05
-895081_1219788_TheOtherHalf_aaa20_comm.png3628362025-04-28 10:02:05
-902120.json87062025-04-28 12:48:30
-902120_1229843_TheOtherHalf_3000_blaze_2.png16490442025-04-28 12:48:30
-908784.json73632025-04-28 15:17:51
-908784_1239422_TheOtherHalf_knux_tikal.png5432822025-04-28 15:17:51
-910181.json66242025-04-28 15:50:13
-910181_1241457_TheOtherHalf_patreon_sal2_sized.png4328002025-04-28 15:50:13
-910183.json72642025-04-28 15:50:16
-910183_1241459_TheOtherHalf_nicole_patreon_alt.png6272072025-04-28 15:50:16
-910186.json82552025-04-28 15:50:20
-910186_1241462_TheOtherHalf_patreon_banner_2_alt.png4310252025-04-28 15:50:20
-912785.json176302025-04-28 16:49:47
-912785_1245255_TheOtherHalf_rewards_image.png3662752025-04-28 16:49:47
-912785_1245269_TheOtherHalf_amy_big_icon.png712502025-04-28 16:49:47
-912785_1245271_TheOtherHalf_sally_big_icon.png1002232025-04-28 16:49:47
-912785_1245272_TheOtherHalf_blaze_big_icon.png717472025-04-28 16:49:47
-912785_1245273_TheOtherHalf_tikal_big_icon.png962642025-04-28 16:49:48
-912808.json67752025-04-28 16:50:34
-912808_1245288_TheOtherHalf_nsfw_sketches.jpg610462025-04-28 16:50:34
-917806.json68722025-04-28 18:51:34
-917806_1252976_TheOtherHalf_butt_up_blaze.png8887932025-04-28 18:51:34
-920839.json58412025-04-28 20:02:22
-920839_1257619_TheOtherHalf_at_octopie.png4558082025-04-28 20:02:22
-966041.json67602025-04-29 12:55:55
-966041_1323710_TheOtherHalf_dakina_comm.png6633122025-04-29 12:55:55
-986636.json75652025-04-30 21:05:55
-986636_1354000_TheOtherHalf_nurse_amy_low.png6348532025-04-30 21:05:55
-987191.json82922025-04-30 21:18:13
-987191_1354812_TheOtherHalf_nurse_bunnie_low.png8661772025-04-30 21:18:13
-988004.json70562025-04-30 21:35:48
-988004_1356159_TheOtherHalf_nurse_honey_low.png9417072025-04-30 21:35:48
-988563.json71782025-04-30 21:48:41
-988563_1356936_TheOtherHalf_nurse_rouge_low.png9573242025-04-30 21:48:41
-989140.json73062025-04-30 22:01:14
-989140_1357746_TheOtherHalf_nurse_sally_low.png5147022025-04-30 22:01:14

control-panel